Return to Metar
METAR CYNL 130000Z AUTO 23004KT 170V290 CLR 20/05 A3010 RMK AO1 SLP188
METAR CYNL 122300Z AUTO 19004KT CLR 20/03 A3011 RMK AO1 SLP194
METAR CYNL 122200Z AUTO 18007KT CLR 20/04 A3012 RMK AO1 SLP198
METAR CYNL 122100Z AUTO 22008KT 190V250 CLR 19/05 A3013 RMK AO1 SLP205
METAR CYNL 122000Z AUTO 06005KT 330V150 CLR 18/05 A3014 RMK AO1 SLP207
METAR CYNL 121900Z AUTO 00006KT 290V070 CLR 18/04 A3015 RMK AO1 SLP211
METAR CYNL 121800Z AUTO 01005KT 330V050 CLR 17/04 A3016 RMK AO1 SLP214
METAR CYNL 121700Z AUTO 30004KT 260V340 CLR 16/05 A3016 RMK AO1 SLP216
METAR CYNL 121600Z AUTO 00002KT CLR 16/07 A3016 RMK AO1 SLP213
METAR CYNL 121500Z AUTO 31004KT CLR 14/08 A3015 RMK AO1 SLP213
METAR CYNL 121400Z AUTO 32005KT CLR 12/09 A3015 RMK AO1 SLP212
METAR CYNL 121300Z AUTO 31005KT CLR 10/09 A3013 RMK AO1 SLP208
METAR CYNL 121200Z AUTO 32004KT CLR 08/08 A3013 RMK AO1 SLP206
METAR CYNL 121100Z AUTO 32006KT CLR 07/07 A3012 RMK AO1 SLP203
METAR CYNL 121000Z AUTO 32004KT CLR 07/07 A3011 RMK AO1 SLP197
METAR CYNL 120900Z AUTO 31004KT CLR 07/07 A3011 RMK AO1 SLP194
METAR CYNL 120800Z AUTO 32004KT CLR 07/07 A3009 RMK AO1 SLP187
METAR CYNL 120700Z AUTO 35003KT CLR 08/07 A3009 RMK AO1 SLP181
SPECI CYNL 120633Z AUTO 35005KT SCT029 09/08 A3009 RMK AO1 SLP181
METAR CYNL 120600Z AUTO 35005KT OVC027 09/08 A3008 RMK AO1 SLP179
SPECI CYNL 120538Z AUTO 00006KT BKN029 BKN088 09/08 A3008 RMK AO1 SLP177
METAR CYNL 120500Z AUTO 01003KT FEW036 BKN062 09/09 A3006 RMK AO1 SLP172
METAR CYNL 120400Z AUTO 00008KT SCT009 BKN054 BKN070 10/09 A3005 RMK AO1 PRESRR SLP169
SPECI CYNL 120354Z AUTO 00007KT SCT009 BKN052 OVC070 10/10 A3004 RMK AO1 SLP168
SPECI CYNL 120351Z AUTO 01010KT BKN009 BKN054 OVC068 10/10 A3004 RMK AO1 SLP167
SPECI CYNL 120345Z AUTO 01009KT SCT007 OVC011 11/10 A3004 RMK AO1 SLP167
SPECI CYNL 120343Z AUTO 00011KT BKN007 BKN010 OVC012 11/10 A3005 RMK AO1 SLP168
SPECI CYNL 120335Z AUTO 00008KT SCT008 BKN010 BKN013 11/11 A3004 RMK AO1 SLP166
SPECI CYNL 120334Z AUTO 00007KT BKN009 BKN013 OVC064 11/11 A3004 RMK AO1 SLP165
SPECI CYNL 120326Z AUTO 01007KT SCT007 OVC011 11/10 A3003 RMK AO1 SLP161
SPECI CYNL 120323Z AUTO 01008KT BKN008 BKN013 OVC046 11/11 A3003 RMK AO1 SLP161
SPECI CYNL 120317Z AUTO 01008G17KT SCT009 BKN014 OVC068 11/11 A3003 RMK AO1 SLP162
SPECI CYNL 120313Z AUTO 00008G17KT SCT008 BKN015 OVC064 11/11 A3003 RMK AO1 SLP162
SPECI CYNL 120312Z AUTO 00010G17KT SCT010 BKN024 OVC064 12/11 A3003 RMK AO1 SLP162
SPECI CYNL 120309Z AUTO 01011G17KT SCT009 BKN025 OVC062 12/11 A3003 RMK AO1 SLP161
SPECI CYNL 120307Z AUTO 01011KT SCT009 BKN024 OVC062 12/11 A3003 RMK AO1 SLP161
METAR CYNL 120300Z AUTO 00005KT FEW009 OVC058 12/11 A3002 RMK AO1 SLP160
SPECI CYNL 120259Z AUTO 01005KT FEW009 OVC058 12/11 A3002 RMK AO1 SLP160
SPECI CYNL 120206Z AUTO 01008KT FEW012 SCT033 BKN060 13/10 A3000 RMK AO1 PRESRR SLP153
SPECI CYNL 120204Z AUTO 02010KT VV023 13/10 A3000 RMK AO1 PRESRR SLP152
SPECI CYNL 120202Z AUTO 02009KT VV028 14/10 A3000 RMK AO1 PRESRR SLP151
METAR CYNL 120200Z AUTO 01008KT SCT030 BKN062 14/10 A3000 RMK AO1 PRESRR SLP152
METAR CYNL 120100Z AUTO 04010KT FEW011 SCT026 BKN054 15/12 A2997 RMK AO1 SLP141
SPECI CYNL 120058Z AUTO 02008KT FEW011 SCT026 BKN050 16/12 A2997 RMK AO1 SLP144
SPECI CYNL 120052Z AUTO 02006KT VV022 16/12 A2997 RMK AO1 SLP143
METAR CYNL 120000Z AUTO 02009G18KT SCT046 17/10 A2997 RMK AO1 SLP141
METAR CYNL 112300Z AUTO 03012KT FEW072 19/12 A2995 RMK AO1 SLP133
METAR CYNL 112200Z AUTO 04013G21KT CLR 21/13 A2993 RMK AO1 SLP126
METAR CYNL 112100Z AUTO 02013G20KT FEW048 23/13 A2991 RMK AO1 SLP118
METAR CYNL 112000Z AUTO 31009KT CLR 26/13 A2990 RMK AO1 SLP111
METAR CYNL 111900Z AUTO 34008KT CLR 25/13 A2989 RMK AO1 SLP110
METAR CYNL 111800Z AUTO 26004KT CLR 25/13 A2990 RMK AO1 SLP110
METAR CYNL 111700Z AUTO 24006KT CLR 24/13 A2990 RMK AO1 SLP113
METAR CYNL 111600Z AUTO 23008KT CLR 22/12 A2990 RMK AO1 SLP114
METAR CYNL 111500Z AUTO 24010KT CLR 20/12 A2992 RMK AO1 SLP123
METAR CYNL 111400Z AUTO 22008KT CLR 18/11 A2993 RMK AO1 SLP124
METAR CYNL 111300Z AUTO 22007KT CLR 17/11 A2993 RMK AO1 SLP127
METAR CYNL 111200Z AUTO 22008KT CLR 15/10 A2995 RMK AO1 SLP132
METAR CYNL 111100Z AUTO 22009KT CLR 14/09 A2997 RMK AO1 SLP139
METAR CYNL 111000Z AUTO 21008G16KT FEW076 15/09 A2998 RMK AO1 PRESFR SLP144
METAR CYNL 110900Z AUTO 20008KT FEW072 14/09 A3001 RMK AO1 PRESFR SLP152
METAR CYNL 110800Z AUTO 19006KT CLR 14/08 A3003 RMK AO1 PRESFR SLP161
METAR CYNL 110700Z AUTO 20006KT CLR 14/08 A3006 RMK AO1 SLP171
METAR CYNL 110600Z AUTO 20006KT CLR 15/08 A3007 RMK AO1 SLP177
METAR CYNL 110500Z AUTO 19008KT CLR 16/08 A3009 RMK AO1 SLP182
METAR CYNL 110400Z AUTO 19009KT CLR 16/07 A3010 RMK AO1 SLP184
METAR CYNL 110300Z AUTO 19006KT CLR 18/07 A3010 RMK AO1 SLP185
METAR CYNL 110200Z AUTO 19009KT CLR 20/06 A3011 RMK AO1 SLP188
METAR CYNL 110100Z AUTO 20012KT CLR 21/05 A3013 RMK AO1 SLP196
METAR CYNL 110000Z AUTO 20011G17KT CLR 21/04 A3015 RMK AO1 PRESFR SLP205
METAR CYNL 102300Z AUTO 20012KT CLR 21/04 A3017 RMK AO1 PRESFR SLP214
METAR CYNL 102200Z AUTO 20012KT CLR 21/04 A3019 RMK AO1 SLP223
METAR CYNL 102100Z AUTO 18012KT CLR 20/05 A3021 RMK AO1 SLP229
METAR CYNL 102000Z AUTO 21011G17KT 170V240 CLR 20/04 A3023 RMK AO1 WSHFT (19)57 SLP236
SPECI CYNL 101957Z AUTO 20011G17KT CLR 20/04 A3023 RMK AO1 WSHFT (19)57 PRESFR SLP237
METAR CYNL 101900Z AUTO 18010G15KT CLR 19/04 A3025 RMK AO1 PRESFR SLP243
METAR CYNL 101800Z AUTO 21010G16KT CLR 19/05 A3027 RMK AO1 SLP251
METAR CYNL 101700Z AUTO 22009G18KT CLR 18/05 A3028 RMK AO1 SLP256
METAR CYNL 101600Z AUTO 21009KT CLR 17/05 A3029 RMK AO1 SLP260
METAR CYNL 101500Z AUTO 21008KT CLR 16/07 A3030 RMK AO1 SLP261
METAR CYNL 101400Z AUTO 23004KT CLR 14/09 A3030 RMK AO1 SLP262
METAR CYNL 101300Z AUTO 25003KT CLR 10/08 A3029 RMK AO1 SLP259
METAR CYNL 101200Z AUTO 00000KT CLR 08/06 A3028 RMK AO1 SLP258
METAR CYNL 101100Z AUTO 24002KT CLR 07/06 A3028 RMK AO1 SLP259
METAR CYNL 101000Z AUTO 27003KT CLR 08/07 A3027 RMK AO1 SLP258
METAR CYNL 100900Z AUTO 26002KT CLR 08/07 A3026 RMK AO1 SLP257
METAR CYNL 100800Z AUTO 27005KT CLR 08/07 A3026 RMK AO1 SLP254
METAR CYNL 100700Z AUTO 25002KT CLR 08/08 A3024 RMK AO1 SLP252
METAR CYNL 100600Z AUTO 24003KT CLR 09/08 A3023 RMK AO1 SLP247
METAR CYNL 100500Z AUTO 24003KT CLR 09/08 A3021 RMK AO1 SLP240
METAR CYNL 100400Z AUTO 29003KT CLR 10/08 A3020 RMK AO1 SLP235
METAR CYNL 100300Z AUTO 30004KT CLR 12/08 A3019 RMK AO1 SLP228
METAR CYNL 100200Z AUTO 30003KT CLR 16/07 A3018 RMK AO1 SLP219
METAR CYNL 100100Z AUTO 30008KT CLR 16/07 A3017 RMK AO1 SLP217
METAR CYNL 100000Z AUTO 31004KT FEW046 15/08 A3016 RMK AO1 SLP214
METAR CYNL 092300Z AUTO 32003KT BKN054 13/08 A3015 RMK AO1 SLP215
SPECI CYNL 092210Z AUTO 33005KT FEW012 SCT028 BKN045 11/09 A3015 RMK AO1 PRESRR SLP216
SPECI CYNL 092203Z AUTO 01004KT FEW011 BKN027 OVC040 11/09 A3015 RMK AO1 PRESRR SLP216
SPECI CYNL 092202Z AUTO 00005KT VV014 11/09 A3015 RMK AO1 PRESRR SLP216
METAR CYNL 092200Z AUTO 34004KT VV018 11/09 A3014 RMK AO1 PRESRR SLP215
SPECI CYNL 092157Z AUTO 00008KT VV024 11/08 A3014 RMK AO1 PRESRR SLP215
SPECI CYNL 092107Z AUTO 02006KT SCT017 BKN025 11/08 A3012 RMK AO1 PRESRR SLP208
SPECI CYNL 092105Z AUTO 02005KT SCT017 BKN024 BKN052 11/08 A3012 RMK AO1 PRESRR SLP207
METAR CYNL 092100Z AUTO 00006KT SCT017 BKN026 11/08 A3012 RMK AO1 PRESRR SLP206
SPECI CYNL 092053Z AUTO 00007KT SCT017 BKN029 11/08 A3011 RMK AO1 PRESRR SLP204
SPECI CYNL 092029Z AUTO 01008KT SCT015 BKN033 OVC046 10/08 A3011 RMK AO1 PRESRR SLP202
SPECI CYNL 092028Z AUTO 00007KT BKN014 BKN033 OVC045 10/08 A3010 RMK AO1 PRESRR SLP202
SPECI CYNL 092023Z AUTO 01007KT SCT014 BKN018 OVC033 10/08 A3010 RMK AO1 PRESRR SLP201
SPECI CYNL 092010Z AUTO 01006G17KT BKN014 OVC043 10/08 A3009 RMK AO1 PRESRR SLP199
SPECI CYNL 092009Z AUTO 01008G17KT SCT012 BKN015 OVC043 10/08 A3009 RMK AO1 PRESRR SLP199
SPECI CYNL 092007Z AUTO 00009G17KT BKN013 OVC046 10/08 A3009 RMK AO1 PRESRR SLP199
SPECI CYNL 092003Z AUTO 00011G17KT SCT012 BKN015 BKN022 09/08 A3009 RMK AO1 PRESRR SLP198
METAR CYNL 092000Z AUTO 01006G15KT BKN013 BKN023 OVC047 09/08 A3009 RMK AO1 PRESRR SLP197
SPECI CYNL 091951Z AUTO 00009G16KT BKN012 OVC037 09/08 A3008 RMK AO1 PRESRR SLP195
SPECI CYNL 091949Z AUTO 01009G16KT SCT012 BKN023 BKN033 09/08 A3008 RMK AO1 PRESRR SLP195
SPECI CYNL 091948Z AUTO 00008G16KT BKN012 BKN037 OVC049 09/08 A3008 RMK AO1 PRESRR SLP195
SPECI CYNL 091947Z AUTO 00009G16KT SCT011 BKN024 BKN036 09/08 A3008 RMK AO1 PRESRR SLP195
SPECI CYNL 091926Z AUTO 00007KT FEW009 SCT014 BKN028 09/08 A3007 RMK AO1 PRESRR SLP192
SPECI CYNL 091921Z AUTO 00008G15KT SCT010 BKN028 OVC037 09/08 A3007 RMK AO1 PRESRR SLP192
SPECI CYNL 091919Z AUTO 00008G15KT FEW010 SCT017 OVC033 09/08 A3007 RMK AO1 PRESRR SLP191
SPECI CYNL 091916Z AUTO 00008G15KT VV027 09/08 A3007 RMK AO1 PRESRR SLP190
SPECI CYNL 091915Z AUTO 00008G15KT VV030 09/08 A3007 RMK AO1 PRESRR SLP190
SPECI CYNL 091914Z AUTO 35007G15KT SCT011 BKN027 OVC035 09/08 A3007 RMK AO1 PRESRR SLP190
SPECI CYNL 091910Z AUTO 01011G17KT VV035 09/08 A3006 RMK AO1 PRESRR SLP189
METAR CYNL 091900Z AUTO 35010KT SCT010 BKN019 BKN033 09/08 A3006 RMK AO1 PRESRR SLP188
SPECI CYNL 091833Z AUTO 00009KT FEW006 SCT010 BKN017 09/08 A3005 RMK AO1 PRESRR SLP182
SPECI CYNL 091832Z AUTO 00010KT FEW006 SCT009 BKN014 09/07 A3005 RMK AO1 PRESRR SLP182
SPECI CYNL 091831Z AUTO 00009KT FEW006 SCT009 BKN015 09/08 A3005 RMK AO1 PRESRR SLP182
SPECI CYNL 091830Z AUTO 00009KT FEW006 BKN010 OVC033 09/08 A3005 RMK AO1 PRESRR SLP182
SPECI CYNL 091828Z AUTO 00009KT FEW006 BKN009 BKN022 09/08 A3004 RMK AO1 PRESRR SLP182
SPECI CYNL 091826Z AUTO 00009G15KT FEW006 BKN010 OVC022 09/08 A3004 RMK AO1 PRESRR SLP181
SPECI CYNL 091818Z AUTO 35009G16KT FEW007 BKN009 BKN014 09/08 A3004 RMK AO1 PRESRR SLP180
SPECI CYNL 091816Z AUTO 35009G16KT FEW007 SCT009 BKN011 09/08 A3004 RMK AO1 PRESRR SLP179
SPECI CYNL 091815Z AUTO 34009G16KT BKN009 BKN015 OVC019 09/08 A3004 RMK AO1 PRESRR SLP179
SPECI CYNL 091814Z AUTO 34008G16KT FEW007 BKN010 BKN015 09/08 A3004 RMK AO1 PRESRR SLP179
SPECI CYNL 091813Z AUTO 34009G16KT BKN009 BKN015 OVC019 09/08 A3004 RMK AO1 PRESRR SLP179
METAR CYNL 091800Z AUTO 35010KT BKN010 BKN017 OVC030 10/08 A3003 RMK AO1 PRESRR SLP176
SPECI CYNL 091714Z AUTO 35012G18KT FEW009 BKN012 BKN028 10/07 A3000 RMK AO1 PRESRR SLP164
SPECI CYNL 091711Z AUTO 34011G17KT BKN010 BKN029 10/08 A3000 RMK AO1 PRESRR SLP164
SPECI CYNL 091710Z AUTO 34012G17KT BKN009 BKN030 10/07 A3000 RMK AO1 PRESRR SLP164
SPECI CYNL 091708Z AUTO 33010G17KT SCT009 BKN013 BKN032 10/08 A3000 RMK AO1 PRESRR SLP163
SPECI CYNL 091705Z AUTO 33009G17KT BKN009 OVC031 10/08 A3000 RMK AO1 PRESRR SLP163
SPECI CYNL 091704Z AUTO 33010G17KT SCT009 BKN011 OVC031 10/08 A2999 RMK AO1 PRESRR SLP163
METAR CYNL 091700Z AUTO 33009G16KT BKN009 OVC029 10/08 A2999 RMK AO1 PRESRR SLP162
SPECI CYNL 091659Z AUTO 33007G16KT BKN009 OVC029 10/08 A2999 RMK AO1 PRESRR SLP162
SPECI CYNL 091658Z AUTO 34008G16KT SCT009 OVC028 10/08 A2999 RMK AO1 PRESRR SLP162
SPECI CYNL 091642Z AUTO 32009G18KT SCT012 BKN024 OVC032 10/08 A2998 RMK AO1 SLP158
SPECI CYNL 091637Z AUTO 32009G17KT SCT012 OVC025 10/08 A2998 RMK AO1 SLP158
SPECI CYNL 091628Z AUTO 33007G16KT SCT012 BKN022 BKN027 10/09 A2998 RMK AO1 SLP156
SPECI CYNL 091622Z AUTO 33008G16KT FEW009 BKN013 BKN026 11/08 A2997 RMK AO1 SLP154
SPECI CYNL 091615Z AUTO 32007G16KT FEW009 SCT013 BKN018 11/08 A2997 RMK AO1 SLP151
SPECI CYNL 091611Z AUTO 33010G16KT FEW009 SCT013 BKN028 11/08 A2997 RMK AO1 SLP151
SPECI CYNL 091606Z AUTO 32007G18KT FEW009 SCT014 BKN020 11/08 A2996 RMK AO1 SLP151
METAR CYNL 091600Z AUTO 30012G18KT SCT009 BKN013 BKN018 11/08 A2996 RMK AO1 SLP150
SPECI CYNL 091554Z AUTO 31009G20KT FEW009 BKN013 OVC018 11/08 A2996 RMK AO1 SLP150
SPECI CYNL 091553Z AUTO 31012G20KT FEW010 BKN013 OVC018 11/08 A2996 RMK AO1 SLP150
SPECI CYNL 091552Z AUTO 30013G20KT FEW009 SCT012 BKN015 11/08 A2996 RMK AO1 SLP150
SPECI CYNL 091551Z AUTO 30012G20KT BKN013 OVC018 11/08 A2996 RMK AO1 SLP149
SPECI CYNL 091550Z AUTO 30011G20KT OVC015 11/08 A2996 RMK AO1 SLP149
SPECI CYNL 091547Z AUTO 31008G16KT BKN014 OVC018 11/08 A2996 RMK AO1 SLP149
METAR CYNL 091500Z AUTO 31009G18KT BKN016 OVC020 11/07 A2994 RMK AO1 SLP144
SPECI CYNL 091446Z AUTO 31007G16KT OVC015 11/07 A2994 RMK AO1 SLP143
METAR CYNL 091400Z AUTO 31009G15KT BKN011 OVC015 10/08 A2993 RMK AO1 SLP139
SPECI CYNL 091303Z AUTO 31009G16KT BKN014 OVC018 10/07 A2991 RMK AO1 SLP133
METAR CYNL 091300Z AUTO 31008G16KT OVC016 10/07 A2991 RMK AO1 SLP133
SPECI CYNL 091236Z AUTO 31008KT SCT014 OVC018 09/06 A2991 RMK AO1 SLP130
SPECI CYNL 091234Z AUTO 32007KT BKN014 OVC017 09/07 A2990 RMK AO1 SLP130
SPECI CYNL 091233Z AUTO 31009KT OVC015 09/07 A2990 RMK AO1 SLP130
SPECI CYNL 091206Z AUTO 30009G17KT BKN013 09/07 A2990 RMK AO1 SLP127
SPECI CYNL 091205Z AUTO 31009G17KT SCT012 BKN015 09/07 A2990 RMK AO1 SLP128
METAR CYNL 091200Z AUTO 31006KT BKN013 09/07 A2990 RMK AO1 SLP127
SPECI CYNL 091158Z AUTO 31007KT FEW011 BKN014 09/07 A2989 RMK AO1 SLP126
SPECI CYNL 091157Z AUTO 30008KT FEW011 SCT014 BKN017 09/07 A2989 RMK AO1 SLP126
METAR CYNL 091100Z AUTO 31005KT CLR 09/07 A2988 RMK AO1 SLP121
METAR CYNL 091000Z AUTO 32006KT CLR 09/07 A2986 RMK AO1 SLP112
METAR CYNL 090900Z AUTO 31006KT CLR 09/07 A2984 RMK AO1 SLP105
METAR CYNL 090800Z AUTO 32005KT CLR 10/06 A2983 RMK AO1 SLP100
METAR CYNL 090700Z AUTO 31006KT CLR 10/07 A2982 RMK AO1 SLP096
METAR CYNL 090600Z AUTO 32004KT SCT043 11/07 A2982 RMK AO1 PRESRR SLP093
METAR CYNL 090500Z AUTO 32005KT BKN042 12/07 A2980 RMK AO1 SLP085
METAR CYNL 090400Z AUTO 31004KT FEW048 11/07 A2979 RMK AO1 SLP085
METAR CYNL 090300Z AUTO 34008KT OVC043 13/07 A2977 RMK AO1 SLP078
METAR CYNL 090200Z AUTO 01006KT BKN044 13/07 A2976 RMK AO1 PRESRR SLP073
METAR CYNL 090100Z AUTO 02009G16KT SCT040 14/08 A2973 RMK AO1 SLP064
SPECI CYNL 090019Z AUTO 02009KT SCT025 BKN030 OVC037 14/08 A2972 RMK AO1 SLP062
SPECI CYNL 090015Z AUTO 02009KT BKN025 OVC037 14/08 A2972 RMK AO1 SLP062
SPECI CYNL 090005Z AUTO 01008G15KT SCT027 BKN036 15/09 A2972 RMK AO1 SLP060
METAR CYNL 090000Z AUTO 01010G15KT BKN027 BKN041 15/08 A2971 RMK AO1 SLP059
SPECI CYNL 082355Z AUTO 01007G16KT BKN027 BKN042 15/09 A2971 RMK AO1 SLP060
SPECI CYNL 082338Z AUTO 35010G15KT BKN030 BKN042 15/08 A2971 RMK AO1 SLP057
SPECI CYNL 082337Z AUTO 35010KT BKN029 BKN042 15/08 A2971 RMK AO1 SLP057
METAR CYNL 082300Z AUTO 35009G15KT FEW031 BKN046 BKN200 17/09 A2970 RMK AO1 SLP052
METAR CYNL 082200Z AUTO 35007KT BKN038 17/09 A2968 RMK AO1 SLP048
METAR CYNL 082100Z AUTO 35008KT FEW032 17/09 A2968 RMK AO1 SLP047
METAR CYNL 082000Z AUTO 34008KT BKN030 18/10 A2969 RMK AO1 SLP049
METAR CYNL 081900Z AUTO 32008KT FEW029 SCT092 18/09 A2969 RMK AO1 SLP047
METAR CYNL 081800Z AUTO 31004KT FEW150 18/11 A2968 RMK AO1 SLP047
METAR CYNL 081700Z AUTO 30006KT FEW140 17/10 A2969 RMK AO1 SLP048
METAR CYNL 081600Z AUTO 31006KT BKN064 16/11 A2968 RMK AO1 SLP047
METAR CYNL 081500Z AUTO 32004KT FEW160 16/11 A2968 RMK AO1 SLP044
METAR CYNL 081400Z AUTO 33005KT CLR 15/11 A2968 RMK AO1 SLP043
METAR CYNL 081300Z AUTO 34006KT BKN052 BKN082 14/11 A2969 RMK AO1 SLP044
METAR CYNL 081200Z AUTO 31003KT CLR 12/10 A2969 RMK AO1 SLP044
METAR CYNL 081100Z AUTO 28003KT CLR 12/09 A2969 RMK AO1 SLP046
METAR CYNL 081000Z AUTO 25003KT CLR 12/10 A2969 RMK AO1 SLP050
METAR CYNL 080900Z AUTO 24005KT CLR 12/10 A2970 RMK AO1 SLP052
METAR CYNL 080800Z AUTO 25002KT BKN086 12/12 A2969 RMK AO1 SLP050
METAR CYNL 080700Z AUTO 25004KT CLR 12/11 A2970 RMK AO1 SLP048
METAR CYNL 080600Z AUTO 24005KT CLR 13/11 A2971 RMK AO1 SLP051
METAR CYNL 080500Z AUTO 24004KT CLR 14/12 A2971 RMK AO1 SLP051
METAR CYNL 080400Z AUTO 23003KT CLR 15/12 A2971 RMK AO1 SLP050
METAR CYNL 080300Z AUTO 24004KT FEW080 BKN100 17/11 A2969 RMK AO1 SLP044
METAR CYNL 080200Z AUTO 25004KT FEW086 20/09 A2969 RMK AO1 SLP042
METAR CYNL 080100Z AUTO 26005KT SCT072 21/10 A2969 RMK AO1 SLP040
METAR CYNL 080000Z AUTO 20006KT FEW066 21/11 A2969 RMK AO1 SLP044
METAR CYNL 072300Z AUTO 23006KT FEW066 18/11 A2969 RMK AO1 SLP046
METAR CYNL 072200Z AUTO 25011G17KT CLR 18/11 A2968 RMK AO1 SLP045
METAR CYNL 072100Z AUTO 25003KT FEW084 18/13 A2967 RMK AO1 SLP040
SPECI CYNL 072012Z AUTO 31005KT FEW006 BKN060 19/13 A2968 RMK AO1 SLP043
METAR CYNL 072000Z AUTO 28008G20KT SCT062 22/09 A2966 RMK AO1 SLP033
METAR CYNL 071900Z AUTO 23011G20KT FEW052 23/09 A2967 RMK AO1 SLP035
METAR CYNL 071800Z AUTO 24011G17KT CLR 21/10 A2968 RMK AO1 SLP042
METAR CYNL 071700Z AUTO 26007KT CLR 20/11 A2969 RMK AO1 SLP043
METAR CYNL 071600Z AUTO 25006KT FEW025 19/11 A2968 RMK AO1 SLP040
SPECI CYNL 071514Z AUTO 26007KT SCT018 17/12 A2968 RMK AO1 SLP042
METAR CYNL 071500Z AUTO 26008G17KT BKN018 17/12 A2969 RMK AO1 SLP043
METAR CYNL 071400Z AUTO 25008KT BKN017 16/12 A2969 RMK AO1 SLP043
SPECI CYNL 071358Z AUTO 26008KT SCT017 BKN022 16/12 A2969 RMK AO1 SLP043
METAR CYNL 071300Z AUTO 24007KT FEW014 SCT054 14/13 A2968 RMK AO1 SLP043
METAR CYNL 071200Z AUTO 26006KT FEW033 SCT062 BKN084 14/13 A2969 RMK AO1 SLP043
METAR CYNL 071100Z AUTO 24004KT BKN039 BKN100 14/13 A2968 RMK AO1 SLP041
METAR CYNL 071000Z AUTO 23007KT FEW054 15/11 A2968 RMK AO1 SLP041
METAR CYNL 070900Z AUTO 23007KT SCT084 15/11 A2969 RMK AO1 SLP044
METAR CYNL 070800Z AUTO 22008KT FEW047 BKN080 15/11 A2971 RMK AO1 SLP050
METAR CYNL 070700Z AUTO 21006KT OVC052 15/11 A2971 RMK AO1 PRESFR SLP055
METAR CYNL 070600Z AUTO 24008G16KT FEW029 16/09 A2975 RMK AO1 SLP063
SPECI CYNL 070525Z AUTO 26016G23KT BKN058 18/08 A2975 RMK AO1 WSHFT (05)25 SLP063
METAR CYNL 070500Z AUTO 22009KT SCT066 BKN160 18/08 A2974 RMK AO1 SLP060
METAR CYNL 070400Z AUTO 21007KT FEW190 18/09 A2974 RMK AO1 SLP063
METAR CYNL 070300Z AUTO 20007KT CLR 19/09 A2974 RMK AO1 SLP064
METAR CYNL 070200Z AUTO 21006KT CLR 19/09 A2975 RMK AO1 SLP067
METAR CYNL 070100Z AUTO 18004KT CLR 21/11 A2977 RMK AO1 SLP072
METAR CYNL 070000Z AUTO 17005KT CLR 20/09 A2978 RMK AO1 SLP080
METAR CYNL 062300Z AUTO 21005KT FEW066 SCT084 19/09 A2980 RMK AO1 SLP089
METAR CYNL 062200Z AUTO 20015KT FEW060 21/08 A2981 RMK AO1 SLP093
METAR CYNL 062100Z AUTO 18007KT CLR 21/08 A2982 RMK AO1 SLP099
SPECI CYNL 062009Z AUTO 11005KT FEW009 18/10 A2984 RMK AO1 SLP107
METAR CYNL 062000Z AUTO 15003KT SCT048 18/10 A2985 RMK AO1 SLP110
METAR CYNL 061900Z AUTO 17009KT FEW054 20/08 A2986 RMK AO1 PRESFR SLP112
METAR CYNL 061800Z AUTO 17007KT CLR 18/08 A2989 RMK AO1 SLP123
METAR CYNL 061700Z AUTO 15007KT FEW074 14/09 A2991 RMK AO1 SLP132
SPECI CYNL 061615Z AUTO 16008KT FEW007 SCT042 BKN060 13/08 A2991 RMK AO1 SLP132
METAR CYNL 061600Z AUTO 21008KT SCT045 BKN058 15/06 A2992 RMK AO1 SLP135
METAR CYNL 061500Z AUTO 16010KT FEW070 14/05 A2993 RMK AO1 SLP135
METAR CYNL 061400Z AUTO 16006KT FEW082 13/06 A2993 RMK AO1 SLP136
METAR CYNL 061300Z AUTO 15002KT FEW060 BKN092 10/06 A2994 RMK AO1 SLP141
METAR CYNL 061200Z AUTO 14004KT FEW064 BKN076 08/05 A2995 RMK AO1 SLP145
METAR CYNL 061100Z AUTO 00000KT BKN098 05/05 A2996 RMK AO1 SLP151
METAR CYNL 061000Z AUTO 21002KT BKN094 05/05 A2996 RMK AO1 SLP152
METAR CYNL 060900Z AUTO 00000KT CLR 05/04 A2996 RMK AO1 SLP151
METAR CYNL 060800Z AUTO 27003KT CLR 06/05 A2996 RMK AO1 SLP150
METAR CYNL 060700Z AUTO 00000KT CLR 06/04 A2995 RMK AO1 SLP148
METAR CYNL 060600Z AUTO 31003KT CLR 08/05 A2994 RMK AO1 SLP143
METAR CYNL 060500Z AUTO 32002KT SCT072 10/04 A2994 RMK AO1 SLP140
METAR CYNL 060400Z AUTO 34003KT BKN072 11/04 A2993 RMK AO1 SLP136
METAR CYNL 060300Z AUTO 01005KT BKN070 BKN086 13/04 A2993 RMK AO1 SLP133
METAR CYNL 060200Z AUTO 00006KT OVC098 14/03 A2991 RMK AO1 SLP128
METAR CYNL 060100Z AUTO 32008KT FEW074 BKN092 15/03 A2990 RMK AO1 SLP127
METAR CYNL 060000Z AUTO 34006KT FEW062 SCT086 15/01 A2989 RMK AO1 SLP122
METAR CYNL 052300Z AUTO 02009KT BKN078 16/M00 A2987 RMK AO1 SLP116
METAR CYNL 052200Z AUTO 02008G17KT SCT074 16/00 A2986 RMK AO1 SLP112
METAR CYNL 052100Z AUTO 01010G16KT BKN070 16/00 A2985 RMK AO1 SLP108
METAR CYNL 052000Z AUTO 04012KT BKN068 16/00 A2983 RMK AO1 SLP103
METAR CYNL 051900Z AUTO 03011KT FEW025 SCT200 14/02 A2983 RMK AO1 SLP105
METAR CYNL 051800Z AUTO 03010G16KT FEW050 BKN068 15/02 A2982 RMK AO1 SLP099
METAR CYNL 051700Z AUTO 05010G16KT FEW050 BKN066 15/02 A2981 RMK AO1 SLP096
METAR CYNL 051600Z AUTO 06013G19KT BKN062 14/04 A2981 RMK AO1 SLP096
METAR CYNL 051500Z AUTO 05013KT SCT062 13/06 A2981 RMK AO1 SLP096
METAR CYNL 051400Z AUTO 03008KT BKN062 10/06 A2981 RMK AO1 SLP097
METAR CYNL 051300Z AUTO 03006KT SCT062 09/06 A2981 RMK AO1 SLP096
METAR CYNL 051200Z AUTO 03005KT CLR 09/06 A2981 RMK AO1 SLP098
METAR CYNL 051100Z AUTO 03005KT FEW240 09/06 A2982 RMK AO1 SLP098
METAR CYNL 051000Z AUTO 04005KT FEW058 BKN240 10/06 A2982 RMK AO1 SLP100
METAR CYNL 050900Z AUTO 05007KT CLR 10/06 A2983 RMK AO1 SLP102
METAR CYNL 050800Z AUTO 05006KT CLR 10/05 A2984 RMK AO1 SLP105
METAR CYNL 050700Z AUTO 06007KT CLR 11/05 A2985 RMK AO1 PRESFR SLP108
METAR CYNL 050600Z AUTO 05005KT CLR 10/05 A2987 RMK AO1 PRESFR SLP117
METAR CYNL 050500Z AUTO 07005KT CLR 11/05 A2989 RMK AO1 SLP124
METAR CYNL 050400Z AUTO 06004KT CLR 11/05 A2989 RMK AO1 SLP123
METAR CYNL 050300Z AUTO 06006KT CLR 13/04 A2989 RMK AO1 SLP124
METAR CYNL 050200Z AUTO 07006KT CLR 14/04 A2989 RMK AO1 SLP123
METAR CYNL 050100Z AUTO 08008KT CLR 15/03 A2990 RMK AO1 SLP127
METAR CYNL 050000Z AUTO 08008KT CLR 15/03 A2991 RMK AO1 SLP131
METAR CYNL 042300Z AUTO 07006KT CLR 15/02 A2992 RMK AO1 SLP137
METAR CYNL 042200Z AUTO 11006KT CLR 15/01 A2994 RMK AO1 SLP146
METAR CYNL 042100Z AUTO 11009KT CLR 16/03 A2995 RMK AO1 SLP147
METAR CYNL 042000Z AUTO 08011KT CLR 15/03 A2995 RMK AO1 SLP147
METAR CYNL 041900Z AUTO 06008KT 030V090 BKN046 14/03 A2996 RMK AO1 SLP152
METAR CYNL 041800Z AUTO 03007KT FEW200 14/02 A2995 RMK AO1 SLP148
METAR CYNL 041700Z AUTO 02009KT 350V050 SCT043 14/03 A2997 RMK AO1 SLP153
METAR CYNL 041600Z AUTO 08006KT 040V110 FEW038 12/02 A2997 RMK AO1 SLP154
METAR CYNL 041500Z AUTO 10005KT CLR 13/04 A2997 RMK AO1 SLP151
METAR CYNL 041400Z AUTO 05005KT CLR 11/05 A2997 RMK AO1 SLP151
METAR CYNL 041300Z AUTO 05004KT CLR 10/05 A2997 RMK AO1 SLP151
METAR CYNL 041200Z AUTO 04005KT CLR 06/05 A2996 RMK AO1 SLP150
METAR CYNL 041100Z AUTO 03003KT CLR 05/03 A2996 RMK AO1 SLP152
METAR CYNL 041000Z AUTO 02004KT CLR 05/04 A2995 RMK AO1 SLP148
METAR CYNL 040900Z AUTO 03004KT CLR 05/03 A2994 RMK AO1 SLP143
METAR CYNL 040800Z AUTO 03003KT CLR 05/03 A2993 RMK AO1 SLP143
METAR CYNL 040700Z AUTO 03004KT CLR 07/03 A2992 RMK AO1 SLP137
METAR CYNL 040600Z AUTO 01002KT CLR 07/03 A2991 RMK AO1 SLP135
METAR CYNL 040500Z AUTO 00000KT CLR 08/03 A2991 RMK AO1 SLP131
METAR CYNL 040400Z AUTO 01005KT CLR 10/03 A2990 RMK AO1 SLP127
METAR CYNL 040300Z AUTO 03003KT CLR 12/03 A2988 RMK AO1 SLP120
METAR CYNL 040200Z AUTO 35004KT FEW056 14/02 A2987 RMK AO1 SLP114
METAR CYNL 040100Z AUTO 00008KT CLR 16/03 A2985 RMK AO1 SLP109
METAR CYNL 040000Z AUTO 34006KT FEW068 15/03 A2985 RMK AO1 SLP110
METAR CYNL 032300Z AUTO 35009KT FEW047 SCT070 16/04 A2985 RMK AO1 SLP110
METAR CYNL 032200Z AUTO 35006KT FEW070 16/04 A2984 RMK AO1 SLP108
METAR CYNL 032100Z AUTO 32004KT SCT046 15/04 A2984 RMK AO1 SLP108
METAR CYNL 032000Z AUTO 27005KT FEW048 16/04 A2983 RMK AO1 SLP104
METAR CYNL 031900Z AUTO 33006KT 290V000 SCT043 BKN052 14/03 A2983 RMK AO1 SLP107
METAR CYNL 031800Z AUTO 29006KT SCT038 14/04 A2983 RMK AO1 SLP106
METAR CYNL 031700Z AUTO 34005KT BKN036 13/04 A2984 RMK AO1 SLP108
METAR CYNL 031600Z AUTO 02004KT 320V080 FEW047 SCT076 12/04 A2984 RMK AO1 SLP109
METAR CYNL 031500Z AUTO 01004KT BKN041 11/04 A2984 RMK AO1 SLP108
METAR CYNL 031400Z AUTO 01004KT BKN049 10/05 A2983 RMK AO1 SLP106
METAR CYNL 031300Z AUTO 00000KT BKN070 10/07 A2983 RMK AO1 SLP104
METAR CYNL 031200Z AUTO 00000KT FEW060 09/07 A2983 RMK AO1 SLP103
METAR CYNL 031100Z AUTO 00000KT FEW054 08/06 A2982 RMK AO1 SLP103
METAR CYNL 031000Z AUTO 33003KT FEW036 OVC045 08/06 A2982 RMK AO1 SLP101
METAR CYNL 030900Z AUTO 00000KT BKN062 07/05 A2981 RMK AO1 SLP100
METAR CYNL 030800Z AUTO 30003KT CLR 07/05 A2981 RMK AO1 SLP097
METAR CYNL 030700Z AUTO 31004KT SCT048 08/05 A2980 RMK AO1 SLP092
METAR CYNL 030600Z AUTO 31004KT FEW049 08/05 A2979 RMK AO1 SLP089
METAR CYNL 030500Z AUTO 32003KT CLR 10/05 A2979 RMK AO1 SLP087
METAR CYNL 030400Z AUTO 32004KT FEW064 11/04 A2979 RMK AO1 SLP085
METAR CYNL 030300Z AUTO 32004KT CLR 12/03 A2978 RMK AO1 SLP081
METAR CYNL 030200Z AUTO 00005KT SCT062 14/03 A2977 RMK AO1 SLP079
METAR CYNL 030100Z AUTO 00007KT FEW046 OVC060 14/03 A2976 RMK AO1 SLP077
METAR CYNL 030000Z AUTO 01007KT FEW045 BKN064 14/04 A2976 RMK AO1 SLP076
METAR CYNL 022300Z AUTO 00009G16KT FEW044 BKN066 14/04 A2975 RMK AO1 SLP073
METAR CYNL 022200Z AUTO 02010G15KT BKN054 14/04 A2974 RMK AO1 SLP074
METAR CYNL 022100Z AUTO 00009G15KT SCT046 BKN062 15/04 A2973 RMK AO1 SLP069
METAR CYNL 022000Z AUTO 02013G20KT BKN058 15/04 A2971 RMK AO1 SLP063
METAR CYNL 021900Z AUTO 04011G16KT SCT062 16/02 A2970 RMK AO1 SLP054
METAR CYNL 021800Z AUTO 35009KT FEW054 16/01 A2970 RMK AO1 SLP055
SPECI CYNL 021743Z AUTO 34010G17KT SCT054 17/02 A2970 RMK AO1 WSHFT (17)43 SLP054
METAR CYNL 021700Z AUTO 01008KT FEW054 16/03 A2970 RMK AO1 SLP053
METAR CYNL 021600Z AUTO 03008KT CLR 16/04 A2970 RMK AO1 SLP055
METAR CYNL 021500Z AUTO 04008KT CLR 15/04 A2972 RMK AO1 SLP059
METAR CYNL 021400Z AUTO 02008KT CLR 14/04 A2972 RMK AO1 SLP059
METAR CYNL 021300Z AUTO 02004KT CLR 14/06 A2971 RMK AO1 SLP056
METAR CYNL 021200Z AUTO 00000KT CLR 12/07 A2972 RMK AO1 SLP058
METAR CYNL 021100Z AUTO 00000KT CLR 08/06 A2973 RMK AO1 SLP065
METAR CYNL 021000Z AUTO 01003KT BKN076 08/06 A2973 RMK AO1 SLP065
METAR CYNL 020900Z AUTO 04003KT FEW078 09/06 A2973 RMK AO1 SLP065
METAR CYNL 020800Z AUTO 06002KT SCT066 BKN082 11/06 A2974 RMK AO1 SLP067
METAR CYNL 020700Z AUTO 06003KT FEW068 11/06 A2975 RMK AO1 SLP070
METAR CYNL 020600Z AUTO 05005KT SCT080 12/05 A2975 RMK AO1 SLP069
METAR CYNL 020500Z AUTO 05006KT BKN078 13/05 A2976 RMK AO1 SLP072
METAR CYNL 020400Z AUTO 04004KT SCT080 14/06 A2977 RMK AO1 SLP074
METAR CYNL 020300Z AUTO 01004KT CLR 16/05 A2977 RMK AO1 SLP075
METAR CYNL 020200Z AUTO 33003KT FEW084 17/04 A2979 RMK AO1 SLP079
METAR CYNL 020100Z AUTO 29009KT FEW082 19/02 A2979 RMK AO1 SLP080
METAR CYNL 020000Z AUTO 31005KT CLR 19/04 A2981 RMK AO1 SLP087
METAR CYNL 012300Z AUTO 29007KT FEW068 20/03 A2982 RMK AO1 SLP093
METAR CYNL 012200Z AUTO 26009KT 230V290 FEW062 20/03 A2983 RMK AO1 SLP100
METAR CYNL 012100Z AUTO 31005KT SCT070 18/03 A2985 RMK AO1 SLP108
SPECI CYNL 012030Z AUTO 31010KT 270V340 FEW066 20/03 A2986 RMK AO1 WSHFT (20)30 SLP109
METAR CYNL 012000Z AUTO 29006KT CLR 20/02 A2986 RMK AO1 SLP112
METAR CYNL 011900Z AUTO 29010G15KT 260V320 FEW060 19/02 A2988 RMK AO1 SLP117
METAR CYNL 011800Z AUTO 30005G16KT FEW064 18/04 A2989 RMK AO1 SLP122
METAR CYNL 011700Z AUTO 29009KT FEW049 17/04 A2990 RMK AO1 SLP125
METAR CYNL 011600Z AUTO 27010KT FEW042 17/06 A2992 RMK AO1 SLP129
METAR CYNL 011500Z AUTO 28005KT FEW049 15/06 A2993 RMK AO1 SLP135
METAR CYNL 011400Z AUTO 26005KT CLR 15/06 A2994 RMK AO1 SLP137
METAR CYNL 011300Z AUTO 24004KT CLR 13/08 A2995 RMK AO1 SLP139
METAR CYNL 011200Z AUTO 24003KT BKN066 11/09 A2996 RMK AO1 SLP143
METAR CYNL 011100Z AUTO 24003KT OVC066 09/08 A2996 RMK AO1 SLP145
METAR CYNL 011000Z AUTO 00000KT BKN064 08/08 A2996 RMK AO1 SLP145
METAR CYNL 010900Z AUTO 25003KT BKN060 08/08 A2996 RMK AO1 SLP145
METAR CYNL 010800Z AUTO 28003KT CLR 08/08 A2996 RMK AO1 SLP148
METAR CYNL 010700Z AUTO 30003KT CLR 08/07 A2996 RMK AO1 SLP146
METAR CYNL 010600Z AUTO 32003KT CLR 09/07 A2995 RMK AO1 SLP144
METAR CYNL 010500Z AUTO 33003KT CLR 11/06 A2995 RMK AO1 SLP146
METAR CYNL 010400Z AUTO 33004KT CLR 12/06 A2995 RMK AO1 SLP141
METAR CYNL 010300Z AUTO 00004KT CLR 14/07 A2994 RMK AO1 SLP138
METAR CYNL 010200Z AUTO 34008KT CLR 16/06 A2993 RMK AO1 SLP133
METAR CYNL 010100Z AUTO 01010G16KT FEW041 SCT078 17/06 A2993 RMK AO1 SLP133
METAR CYNL 010000Z AUTO 34010KT SCT072 17/06 A2992 RMK AO1 SLP131
METAR CYNL 312300Z AUTO 30007G16KT CLR 17/07 A2992 RMK AO1 SLP131
METAR CYNL 312200Z AUTO 33009G16KT FEW076 17/07 A2992 RMK AO1 SLP130
METAR CYNL 312100Z AUTO 30006G16KT SCT066 15/08 A2992 RMK AO1 SLP133
METAR CYNL 312000Z AUTO 33006G16KT FEW039 17/07 A2991 RMK AO1 SLP125
METAR CYNL 311900Z AUTO 33006KT FEW029 16/10 A2992 RMK AO1 SLP129
METAR CYNL 311800Z AUTO 00000KT FEW150 13/09 A2992 RMK AO1 SLP133
SPECI CYNL 311734Z AUTO VRB06KT FEW020 SCT034 BKN039 12/09 A2993 RMK AO1 SLP136
SPECI CYNL 311733Z AUTO VRB06KT VV023 12/10 A2993 RMK AO1 SLP136
SPECI CYNL 311731Z AUTO VRB05KT VV028 12/10 A2992 RMK AO1 SLP135
METAR CYNL 311700Z AUTO 34005KT FEW018 SCT034 13/11 A2993 RMK AO1 SLP134
METAR CYNL 311600Z AUTO 21002KT FEW008 BKN052 13/12 A2993 RMK AO1 SLP134
SPECI CYNL 311559Z AUTO 21002KT FEW008 BKN052 13/12 A2993 RMK AO1 SLP134
METAR CYNL 311500Z AUTO 00000KT FEW090 12/11 A2993 RMK AO1 SLP137
METAR CYNL 311400Z AUTO 23002KT BKN060 12/10 A2993 RMK AO1 PRESFR SLP135
METAR CYNL 311300Z AUTO 24003KT BKN046 11/11 A2996 RMK AO1 SLP141
SPECI CYNL 311205Z AUTO 00003KT FEW008 SCT018 OVC050 11/11 A2996 RMK AO1 SLP141
SPECI CYNL 311203Z AUTO 00003KT VV013 11/11 A2996 RMK AO1 SLP141
METAR CYNL 311200Z AUTO 33003KT VV019 11/11 A2996 RMK AO1 SLP142
SPECI CYNL 311119Z AUTO 29002KT FEW007 BKN048 12/10 A2997 RMK AO1 SLP144
METAR CYNL 311100Z AUTO 25003KT BKN052 12/11 A2997 RMK AO1 SLP144
METAR CYNL 311000Z AUTO 35004KT BKN052 OVC062 11/09 A2998 RMK AO1 SLP147
METAR CYNL 310900Z AUTO 13002KT OVC068 12/08 A2998 RMK AO1 SLP146
METAR CYNL 310800Z AUTO 00000KT OVC100 12/08 A3000 RMK AO1 PRESFR SLP154
METAR CYNL 310700Z AUTO 21003KT FEW084 SCT100 12/07 A3002 RMK AO1 SLP163
METAR CYNL 310600Z AUTO 00000KT SCT094 13/07 A3002 RMK AO1 SLP163
METAR CYNL 310500Z AUTO 00000KT BKN092 13/06 A3003 RMK AO1 SLP167
METAR CYNL 310400Z AUTO 00000KT FEW088 BKN130 13/06 A3004 RMK AO1 SLP169
METAR CYNL 310300Z AUTO 15003KT CLR 16/05 A3004 RMK AO1 SLP166
METAR CYNL 310200Z AUTO 01005KT 330V050 CLR 19/03 A3004 RMK AO1 SLP166
METAR CYNL 310100Z AUTO 29005KT 240V340 CLR 20/03 A3004 RMK AO1 SLP166
METAR CYNL 310000Z AUTO 01006KT 300V070 SCT066 20/02 A3004 RMK AO1 SLP169
METAR CYNL 302300Z AUTO 33006KT 300V000 FEW066 20/02 A3005 RMK AO1 SLP172
METAR CYNL 302200Z AUTO 26005KT SCT060 19/03 A3005 RMK AO1 SLP172
METAR CYNL 302100Z AUTO 00006KT SCT064 18/04 A3004 RMK AO1 SLP171
METAR CYNL 302000Z AUTO 03007KT FEW058 17/02 A3005 RMK AO1 SLP173
METAR CYNL 301900Z AUTO 32008KT 280V010 CLR 18/04 A3005 RMK AO1 SLP171
METAR CYNL 301800Z AUTO 01004KT BKN052 16/05 A3005 RMK AO1 SLP176
METAR CYNL 301700Z AUTO 31004KT 250V020 FEW049 17/05 A3006 RMK AO1 SLP178
METAR CYNL 301600Z AUTO 00000KT FEW098 16/05 A3006 RMK AO1 SLP179
METAR CYNL 301500Z AUTO 02003KT SCT094 14/05 A3006 RMK AO1 SLP178
METAR CYNL 301400Z AUTO 35003KT FEW096 13/07 A3006 RMK AO1 SLP176
METAR CYNL 301300Z AUTO 00000KT BKN086 11/09 A3005 RMK AO1 SLP174
METAR CYNL 301200Z AUTO 31002KT FEW080 BKN150 10/09 A3005 RMK AO1 SLP172
METAR CYNL 301100Z AUTO 22002KT OVC150 11/08 A3004 RMK AO1 SLP167
METAR CYNL 301000Z AUTO 00000KT SCT040 11/08 A3005 RMK AO1 SLP171
SPECI CYNL 300915Z AUTO 34003KT FEW008 SCT042 11/07 A3005 RMK AO1 SLP171
METAR CYNL 300900Z AUTO 35003KT FEW043 SCT062 11/07 A3004 RMK AO1 SLP167
METAR CYNL 300800Z AUTO 00000KT BKN078 12/06 A3003 RMK AO1 SLP162
METAR CYNL 300700Z AUTO 04005KT BKN130 12/05 A3002 RMK AO1 SLP162
METAR CYNL 300600Z AUTO 03004KT FEW076 BKN160 12/05 A3001 RMK AO1 SLP159
METAR CYNL 300500Z AUTO 03006KT FEW072 13/05 A3000 RMK AO1 SLP154
METAR CYNL 300400Z AUTO 02004KT OVC072 14/06 A2999 RMK AO1 SLP148
METAR CYNL 300300Z AUTO 35006KT FEW072 15/04 A2997 RMK AO1 SLP144
METAR CYNL 300200Z AUTO 34006KT CLR 18/03 A2997 RMK AO1 SLP144
METAR CYNL 300100Z AUTO 31004KT CLR 19/02 A2997 RMK AO1 SLP142
METAR CYNL 300000Z AUTO 34006KT SCT066 19/04 A2997 RMK AO1 WSHFT (23)48 SLP141
SPECI CYNL 292348Z AUTO 33012G17KT SCT068 20/03 A2996 RMK AO1 WSHFT (23)48 SLP138
SPECI CYNL 292344Z AUTO 00011KT SCT068 20/04 A2996 RMK AO1 WSHFT (23)44 SLP138
METAR CYNL 292300Z AUTO 34007KT CLR 21/03 A2996 RMK AO1 SLP137
METAR CYNL 292200Z AUTO 34008KT FEW060 20/04 A2996 RMK AO1 SLP137
METAR CYNL 292100Z AUTO 34003KT CLR 20/05 A2995 RMK AO1 SLP133
METAR CYNL 292000Z AUTO 00011KT FEW054 19/05 A2995 RMK AO1 SLP134
METAR CYNL 291900Z AUTO 35011G16KT 310V020 SCT047 18/07 A2994 RMK AO1 WSHFT (18)57 SLP131
SPECI CYNL 291857Z AUTO 35011G16KT 310V020 SCT046 19/07 A2994 RMK AO1 WSHFT (18)57 SLP129
METAR CYNL 291800Z AUTO 35010KT SCT044 17/07 A2994 RMK AO1 SLP132
SPECI CYNL 291737Z AUTO 34012KT FEW043 18/06 A2994 RMK AO1 WSHFT (17)37 SLP129
METAR CYNL 291700Z AUTO 01010KT CLR 17/06 A2993 RMK AO1 SLP127
METAR CYNL 291600Z AUTO 01006KT CLR 17/08 A2992 RMK AO1 SLP125
SPECI CYNL 291511Z AUTO 01009KT SCT021 16/11 A2991 RMK AO1 PRESRR SLP119
SPECI CYNL 291510Z AUTO 00009KT SCT021 BKN028 15/10 A2991 RMK AO1 PRESRR SLP119
METAR CYNL 291500Z AUTO 35006KT OVC021 14/11 A2991 RMK AO1 PRESRR SLP120
METAR CYNL 291400Z AUTO 35007KT SCT013 BKN019 OVC032 14/13 A2989 RMK AO1 PRESRR SLP111
SPECI CYNL 291347Z AUTO 34007KT FEW010 BKN015 BKN023 14/13 A2989 RMK AO1 SLP109
SPECI CYNL 291345Z AUTO 34005KT FEW010 BKN014 OVC032 14/13 A2989 RMK AO1 SLP108
SPECI CYNL 291329Z AUTO 35007KT FEW009 SCT013 BKN017 13/13 A2988 RMK AO1 SLP107
SPECI CYNL 291320Z AUTO 35008G16KT FEW009 BKN014 OVC018 13/13 A2988 RMK AO1 SLP106
SPECI CYNL 291313Z AUTO 35009G20KT FEW009 SCT011 BKN015 13/13 A2987 RMK AO1 SLP106
METAR CYNL 291300Z AUTO 34011KT SCT009 BKN014 OVC024 14/14 A2987 RMK AO1 SLP102
SPECI CYNL 291257Z AUTO 34009KT SCT009 BKN012 OVC024 14/14 A2986 RMK AO1 SLP100
SPECI CYNL 291243Z AUTO 33009KT FEW009 SCT012 BKN016 14/14 A2986 RMK AO1 SLP098
SPECI CYNL 291232Z AUTO 34007KT FEW009 SCT011 BKN016 14/14 A2986 RMK AO1 SLP097
SPECI CYNL 291228Z AUTO 34006KT SCT010 BKN015 OVC019 14/14 A2986 RMK AO1 SLP097
SPECI CYNL 291226Z AUTO 34007KT BKN010 BKN015 OVC019 14/14 A2986 RMK AO1 SLP097
SPECI CYNL 291216Z AUTO 33010KT SCT009 OVC015 14/14 A2985 RMK AO1 SLP096
SPECI CYNL 291214Z AUTO 33008KT FEW009 BKN010 OVC016 15/14 A2985 RMK AO1 SLP095
SPECI CYNL 291213Z AUTO 33006KT BKN009 OVC016 15/15 A2985 RMK AO1 SLP095
SPECI CYNL 291208Z AUTO 33007KT FEW008 SCT010 OVC016 15/15 A2985 RMK AO1 SLP095
METAR CYNL 291200Z AUTO 33008KT SCT010 OVC016 15/15 A2985 RMK AO1 SLP094
SPECI CYNL 291155Z AUTO 34007KT SCT009 OVC017 15/15 A2985 RMK AO1 SLP093
SPECI CYNL 291152Z AUTO 34008KT SCT009 BKN011 OVC016 15/15 A2984 RMK AO1 SLP092
SPECI CYNL 291149Z AUTO 33008G16KT BKN010 BKN013 OVC020 15/15 A2984 RMK AO1 SLP092
SPECI CYNL 291145Z AUTO 34008G16KT BKN009 OVC020 15/15 A2984 RMK AO1 SLP091
SPECI CYNL 291139Z AUTO 33009KT SCT009 BKN012 BKN022 15/15 A2984 RMK AO1 SLP091
SPECI CYNL 291126Z AUTO 33006KT SCT009 BKN017 OVC025 15/15 A2983 RMK AO1 SLP088
SPECI CYNL 291124Z AUTO 32006KT FEW009 SCT012 BKN025 15/15 A2983 RMK AO1 SLP088
SPECI CYNL 291122Z AUTO 33006KT FEW009 SCT012 BKN022 15/15 A2983 RMK AO1 SLP088
SPECI CYNL 291111Z AUTO 32006KT FEW008 SCT011 BKN025 15/15 A2983 RMK AO1 SLP088
METAR CYNL 291100Z AUTO 32005KT FEW009 SCT011 BKN024 15/15 A2983 RMK AO1 SLP087
SPECI CYNL 291012Z AUTO 32007KT FEW008 SCT011 BKN016 16/16 A2982 RMK AO1 SLP081
SPECI CYNL 291009Z AUTO 32006KT FEW008 SCT010 BKN016 16/16 A2981 RMK AO1 SLP081
SPECI CYNL 291006Z AUTO 31008KT SCT008 BKN011 BKN020 16/16 A2981 RMK AO1 SLP080
SPECI CYNL 291003Z AUTO 31008KT BKN009 BKN020 16/16 A2981 RMK AO1 SLP080
METAR CYNL 291000Z AUTO 32007KT SCT008 BKN011 BKN014 16/16 A2981 RMK AO1 SLP080
SPECI CYNL 290956Z AUTO 32008KT BKN008 BKN011 16/16 A2981 RMK AO1 SLP079
SPECI CYNL 290950Z AUTO 32006KT SCT008 OVC010 16/16 A2981 RMK AO1 SLP079
SPECI CYNL 290922Z AUTO 31006KT BKN009 16/16 A2981 RMK AO1 SLP077
SPECI CYNL 290921Z AUTO 31007KT SCT009 BKN010 16/16 A2980 RMK AO1 SLP077
SPECI CYNL 290920Z AUTO 31008KT BKN009 16/16 A2980 RMK AO1 SLP077
SPECI CYNL 290918Z AUTO 30007KT SCT009 BKN010 16/16 A2980 RMK AO1 SLP077
SPECI CYNL 290917Z AUTO 31007KT BKN009 16/16 A2980 RMK AO1 SLP077
SPECI CYNL 290908Z AUTO 30008KT FEW008 SCT088 16/16 A2980 RMK AO1 SLP075
METAR CYNL 290900Z AUTO 29007KT SCT086 16/16 A2980 RMK AO1 SLP075
METAR CYNL 290800Z AUTO 30005KT SCT037 BKN048 16/16 A2980 RMK AO1 SLP074
METAR CYNL 290700Z AUTO 31006KT SCT009 BKN074 17/17 A2979 RMK AO1 SLP073
SPECI CYNL 290654Z AUTO 29005KT SCT009 BKN039 BKN074 17/17 A2978 RMK AO1 PRESFR SLP072
SPECI CYNL 290653Z AUTO 28004KT SCT009 BKN025 BKN074 17/17 A2978 RMK AO1 PRESFR SLP071
SPECI CYNL 290651Z AUTO 27004KT SCT009 BKN039 BKN078 17/17 A2978 RMK AO1 PRESFR SLP071
SPECI CYNL 290649Z AUTO 28004KT VV018 17/17 A2978 RMK AO1 PRESFR SLP071
SPECI CYNL 290640Z AUTO 00000KT SCT009 BKN064 17/17 A2978 RMK AO1 PRESFR SLP069
SPECI CYNL 290638Z AUTO 00000KT VV010 17/17 A2978 RMK AO1 PRESFR SLP069
SPECI CYNL 290635Z AUTO 00000KT VV009 17/17 A2978 RMK AO1 PRESFR SLP070
SPECI CYNL 290617Z AUTO 24003KT FEW009 BKN060 BKN068 17/17 A2977 RMK AO1 PRESFR SLP067
METAR CYNL 290600Z AUTO 22004KT FEW017 OVC064 17/17 A2978 RMK AO1 PRESFR SLP070
SPECI CYNL 290527Z AUTO VRB03KT FEW003 SCT027 OVC049 17/17 A2980 RMK AO1 PRESRR SLP076
SPECI CYNL 290526Z AUTO 00000KT FEW003 BKN029 OVC049 17/17 A2980 RMK AO1 PRESRR SLP077
SPECI CYNL 290525Z AUTO 00000KT VV032 17/17 A2980 RMK AO1 PRESRR SLP078
SPECI CYNL 290522Z AUTO 00000KT VV028 17/17 A2981 RMK AO1 PRESRR SLP079
SPECI CYNL 290519Z AUTO 28002KT FEW003 SCT027 BKN035 17/17 A2981 RMK AO1 PRESRR SLP081
METAR CYNL 290500Z AUTO 24012KT SCT031 BKN060 18/17 A2982 RMK AO1 PRESRR SLP082
METAR CYNL 290400Z AUTO 20006KT SCT064 22/11 A2977 RMK AO1 PRESFR SLP063
METAR CYNL 290300Z AUTO 18004KT FEW064 22/11 A2979 RMK AO1 SLP072
METAR CYNL 290200Z AUTO 17006KT CLR 24/09 A2981 RMK AO1 PRESFR SLP077
METAR CYNL 290100Z AUTO 20008KT CLR 25/08 A2984 RMK AO1 PRESFR SLP088
METAR CYNL 290000Z AUTO 20010KT CLR 25/07 A2987 RMK AO1 PRESFR SLP101
METAR CYNL 282300Z AUTO 20010KT FEW076 25/06 A2989 RMK AO1 PRESFR SLP111
METAR CYNL 282200Z AUTO 21009G16KT CLR 26/05 A2991 RMK AO1 PRESFR SLP122
METAR CYNL 282100Z AUTO 20010KT CLR 25/06 A2994 RMK AO1 PRESFR SLP129
METAR CYNL 282000Z AUTO 21009G18KT CLR 24/05 A2996 RMK AO1 PRESFR SLP137
METAR CYNL 281900Z AUTO 19011KT CLR 24/06 A2998 RMK AO1 PRESFR SLP146
METAR CYNL 281800Z AUTO 19010G16KT CLR 23/06 A3001 RMK AO1 SLP155
METAR CYNL 281700Z AUTO 21008KT CLR 22/06 A3003 RMK AO1 PRESFR SLP161
METAR CYNL 281600Z AUTO 19009KT CLR 22/07 A3005 RMK AO1 SLP169
METAR CYNL 281500Z AUTO 20004KT CLR 21/08 A3007 RMK AO1 SLP174
METAR CYNL 281400Z AUTO 22004KT CLR 19/09 A3008 RMK AO1 SLP175
METAR CYNL 281300Z AUTO 23003KT CLR 15/10 A3009 RMK AO1 SLP178
METAR CYNL 281200Z AUTO 24003KT CLR 11/11 A3009 RMK AO1 SLP182
METAR CYNL 281100Z AUTO 24002KT CLR 09/09 A3009 RMK AO1 SLP184
METAR CYNL 281000Z AUTO 22003KT CLR 09/09 A3009 RMK AO1 SLP184
METAR CYNL 280900Z AUTO 24002KT CLR 10/09 A3010 RMK AO1 SLP187
METAR CYNL 280800Z AUTO 24002KT CLR 11/10 A3009 RMK AO1 SLP185
METAR CYNL 280700Z AUTO 25004KT CLR 11/10 A3010 RMK AO1 SLP186
METAR CYNL 280600Z AUTO 00000KT CLR 12/10 A3010 RMK AO1 SLP188
METAR CYNL 280500Z AUTO 29004KT CLR 13/09 A3010 RMK AO1 SLP187
METAR CYNL 280400Z AUTO 29004KT CLR 14/10 A3010 RMK AO1 SLP185
METAR CYNL 280300Z AUTO 32003KT CLR 20/06 A3010 RMK AO1 SLP181
METAR CYNL 280200Z AUTO 00000KT CLR 22/05 A3009 RMK AO1 SLP178
METAR CYNL 280100Z AUTO 26003KT CLR 23/05 A3009 RMK AO1 SLP178
METAR CYNL 280000Z AUTO 35005KT CLR 22/05 A3009 RMK AO1 SLP181
METAR CYNL 272300Z AUTO 31005KT FEW066 23/05 A3010 RMK AO1 SLP184
METAR CYNL 272200Z AUTO 01007KT FEW064 22/06 A3010 RMK AO1 SLP187
METAR CYNL 272100Z AUTO 01008KT SCT064 BKN190 20/07 A3010 RMK AO1 SLP188
METAR CYNL 272000Z AUTO 03008KT CLR 21/06 A3010 RMK AO1 SLP189
METAR CYNL 271900Z AUTO 04007KT CLR 20/05 A3010 RMK AO1 SLP188
METAR CYNL 271800Z AUTO 01009KT 330V040 CLR 20/07 A3010 RMK AO1 SLP191
METAR CYNL 271700Z AUTO 01008G15KT CLR 19/07 A3010 RMK AO1 SLP191
METAR CYNL 271600Z AUTO 02008KT CLR 18/08 A3010 RMK AO1 SLP189
METAR CYNL 271500Z AUTO 00007KT CLR 17/08 A3008 RMK AO1 SLP185
METAR CYNL 271400Z AUTO 35007KT CLR 15/08 A3008 RMK AO1 SLP182
METAR CYNL 271300Z AUTO 32005KT CLR 14/09 A3008 RMK AO1 SLP183
METAR CYNL 271200Z AUTO 33004KT CLR 12/09 A3007 RMK AO1 SLP180
METAR CYNL 271100Z AUTO 32005KT 10/10 A3005 RMK AO1 SLP177
METAR CYNL 271000Z AUTO 32006KT CLR 10/09 A3004 RMK AO1 SLP172
METAR CYNL 270900Z AUTO 31005KT CLR 10/10 A3003 RMK AO1 SLP170
METAR CYNL 270800Z AUTO 32004KT CLR 10/10 A3002 RMK AO1 SLP164
METAR CYNL 270700Z AUTO 32004KT CLR 09/09 A3002 RMK AO1 SLP164
METAR CYNL 270600Z AUTO 31003KT CLR 10/09 A3001 RMK AO1 SLP161
METAR CYNL 270500Z AUTO 32004KT FEW110 11/09 A3000 RMK AO1 SLP159
METAR CYNL 270400Z AUTO 00000KT FEW062 12/10 A3000 RMK AO1 SLP155
METAR CYNL 270300Z AUTO 00004KT FEW080 14/09 A2998 RMK AO1 SLP149
METAR CYNL 270200Z AUTO 00000KT SCT062 BKN110 16/11 A2997 RMK AO1 SLP144
SPECI CYNL 270111Z AUTO 33004KT FEW006 SCT039 14/10 A2996 RMK AO1 SLP145
METAR CYNL 270100Z AUTO 01014G19KT FEW037 17/10 A2996 RMK AO1 SLP141
METAR CYNL 270000Z AUTO 00005KT SCT080 16/09 A2995 RMK AO1 SLP141
METAR CYNL 262300Z AUTO 02008KT FEW074 16/09 A2995 RMK AO1 SLP141
METAR CYNL 262200Z AUTO 02011KT FEW062 15/10 A2993 RMK AO1 SLP136
SPECI CYNL 262121Z AUTO 00012G19KT 320V040 BKN042 17/08 A2992 RMK AO1 WSHFT (21)21 SLP128
METAR CYNL 262100Z AUTO 33004KT FEW056 SCT180 18/08 A2992 RMK AO1 SLP127
METAR CYNL 262000Z AUTO 34005KT CLR 19/07 A2990 RMK AO1 SLP121
METAR CYNL 261900Z AUTO 05010G15KT FEW043 18/07 A2990 RMK AO1 SLP121
METAR CYNL 261800Z AUTO 03010G16KT SCT047 16/09 A2990 RMK AO1 SLP121
METAR CYNL 261700Z AUTO 02010G16KT FEW024 SCT049 16/09 A2989 RMK AO1 SLP120
METAR CYNL 261600Z AUTO 02007KT FEW017 SCT020 15/11 A2988 RMK AO1 SLP118
SPECI CYNL 261554Z AUTO 02010KT FEW017 SCT021 BKN078 15/11 A2988 RMK AO1 SLP117
SPECI CYNL 261547Z AUTO 02009KT SCT017 BKN024 15/11 A2988 RMK AO1 SLP116
SPECI CYNL 261501Z AUTO 04008KT SCT012 BKN078 15/11 A2987 RMK AO1 SLP112
METAR CYNL 261500Z AUTO 06008KT SCT012 BKN026 15/12 A2987 RMK AO1 SLP113
SPECI CYNL 261453Z AUTO 05007KT SCT012 BKN026 BKN076 14/11 A2987 RMK AO1 SLP112
SPECI CYNL 261432Z AUTO 03006KT FEW009 BKN011 BKN074 13/12 A2987 RMK AO1 SLP113
SPECI CYNL 261428Z AUTO 04006KT BKN010 BKN074 13/12 A2987 RMK AO1 SLP113
SPECI CYNL 261427Z AUTO 03007KT SCT010 BKN015 BKN074 13/11 A2987 RMK AO1 SLP112
SPECI CYNL 261415Z AUTO 03007KT SCT009 BKN013 13/12 A2986 RMK AO1 SLP112
SPECI CYNL 261407Z AUTO 04009KT SCT009 BKN025 BKN074 13/12 A2986 RMK AO1 SLP111
METAR CYNL 261400Z AUTO 03006KT BKN009 OVC026 13/12 A2986 RMK AO1 SLP111
SPECI CYNL 261331Z AUTO 02007KT BKN008 OVC011 13/12 A2985 RMK AO1 SLP108
SPECI CYNL 261327Z AUTO 02007KT SCT008 OVC010 13/12 A2985 RMK AO1 SLP108
SPECI CYNL 261325Z AUTO 02008KT BKN008 OVC012 12/12 A2985 RMK AO1 SLP108
SPECI CYNL 261324Z AUTO 02008KT SCT008 BKN010 OVC013 12/12 A2985 RMK AO1 SLP108
SPECI CYNL 261315Z AUTO 01008KT BKN009 BKN011 OVC045 13/12 A2985 RMK AO1 SLP107
SPECI CYNL 261314Z AUTO 01008KT SCT009 BKN011 OVC045 13/12 A2985 RMK AO1 SLP107
SPECI CYNL 261313Z AUTO 01008KT BKN009 BKN011 OVC045 13/12 A2985 RMK AO1 SLP107
METAR CYNL 261300Z AUTO 02009KT FEW007 SCT009 BKN011 12/12 A2984 RMK AO1 SLP105
SPECI CYNL 261233Z AUTO 01006KT BKN008 OVC029 12/12 A2983 RMK AO1 SLP103
SPECI CYNL 261232Z AUTO 01006KT SCT008 OVC029 12/12 A2983 RMK AO1 SLP103
SPECI CYNL 261231Z AUTO 01006KT SCT008 BKN022 OVC030 12/12 A2983 RMK AO1 SLP102
SPECI CYNL 261229Z AUTO 01009KT SCT008 OVC030 12/12 A2983 RMK AO1 SLP102
SPECI CYNL 261226Z AUTO 01005KT SCT008 OVC028 12/12 A2983 RMK AO1 SLP102
SPECI CYNL 261221Z AUTO 01005KT SCT008 BKN023 OVC030 12/12 A2983 RMK AO1 SLP101
SPECI CYNL 261218Z AUTO 01007KT SCT008 BKN012 OVC029 12/12 A2983 RMK AO1 SLP101
SPECI CYNL 261217Z AUTO 01007KT FEW008 SCT013 BKN022 12/12 A2983 RMK AO1 SLP101
METAR CYNL 261200Z AUTO 01005KT FEW006 BKN011 BKN015 12/12 A2983 RMK AO1 SLP100
SPECI CYNL 261149Z AUTO 03006KT SCT006 BKN010 OVC015 12/12 A2983 RMK AO1 PRESRR SLP100
METAR CYNL 261100Z AUTO 02005KT OVC005 12/12 A2981 RMK AO1 PRESRR SLP096
SPECI CYNL 261023Z AUTO 03007KT SCT003 OVC006 12/12 A2980 RMK AO1 PRESRR SLP090
METAR CYNL 261000Z AUTO 01006KT OVC003 12/12 A2979 RMK AO1 PRESRR SLP087
SPECI CYNL 260922Z AUTO 01007KT BKN004 OVC007 12/12 A2977 RMK AO1 SLP082
METAR CYNL 260900Z AUTO 02006KT BKN006 OVC022 12/12 A2976 RMK AO1 SLP079
SPECI CYNL 260847Z AUTO 02008KT SCT006 BKN008 BKN015 12/12 A2976 RMK AO1 SLP077
SPECI CYNL 260834Z AUTO 02008KT FEW007 BKN010 BKN015 12/12 A2976 RMK AO1 SLP076
SPECI CYNL 260833Z AUTO 02007KT FEW007 BKN009 OVC015 12/12 A2976 RMK AO1 SLP076
SPECI CYNL 260820Z AUTO 03008KT SCT004 BKN011 BKN015 13/13 A2975 RMK AO1 SLP074
SPECI CYNL 260812Z AUTO 04009KT SCT004 BKN007 BKN012 13/13 A2975 RMK AO1 SLP073
SPECI CYNL 260810Z AUTO 03008KT BKN004 BKN007 OVC026 13/13 A2975 RMK AO1 SLP073
SPECI CYNL 260808Z AUTO 04009KT SCT003 BKN005 BKN007 13/13 A2975 RMK AO1 SLP073
METAR CYNL 260800Z AUTO 03007KT OVC004 13/13 A2975 RMK AO1 SLP072
SPECI CYNL 260738Z AUTO 02006KT BKN004 OVC027 12/12 A2974 RMK AO1 SLP071
SPECI CYNL 260728Z AUTO 01006KT SCT005 BKN012 BKN027 13/13 A2974 RMK AO1 SLP069
SPECI CYNL 260726Z AUTO 02005KT SCT005 BKN019 BKN027 13/13 A2973 RMK AO1 SLP069
SPECI CYNL 260724Z AUTO 01006KT SCT005 BKN027 13/13 A2973 RMK AO1 SLP069
SPECI CYNL 260720Z AUTO 02006KT SCT005 BKN020 OVC027 13/13 A2973 RMK AO1 SLP068
SPECI CYNL 260717Z AUTO 02006KT FEW004 SCT006 BKN012 13/13 A2973 RMK AO1 SLP068
METAR CYNL 260700Z AUTO 01004KT BKN006 BKN019 OVC072 13/13 A2973 RMK AO1 SLP067
SPECI CYNL 260659Z AUTO 00004KT SCT006 BKN010 BKN019 13/13 A2973 RMK AO1 SLP066
SPECI CYNL 260652Z AUTO 01004KT BKN007 BKN011 OVC016 13/13 A2973 RMK AO1 SLP064
SPECI CYNL 260650Z AUTO 35004KT SCT006 BKN010 OVC016 13/13 A2973 RMK AO1 SLP064
SPECI CYNL 260645Z AUTO 00003KT SCT006 BKN008 BKN011 13/13 A2973 RMK AO1 SLP064
SPECI CYNL 260644Z AUTO 00003KT SCT007 BKN010 OVC070 13/13 A2973 RMK AO1 SLP064
SPECI CYNL 260643Z AUTO 00003KT FEW006 BKN008 BKN011 13/13 A2973 RMK AO1 SLP064
SPECI CYNL 260623Z AUTO 05004KT FEW007 BKN011 13/13 A2973 RMK AO1 SLP064
SPECI CYNL 260621Z AUTO 00000KT FEW007 SCT012 BKN015 13/13 A2973 RMK AO1 SLP064
SPECI CYNL 260607Z AUTO 00000KT FEW007 BKN029 BKN074 13/13 A2973 RMK AO1 SLP064
SPECI CYNL 260603Z AUTO 00000KT FEW007 SCT029 BKN039 13/13 A2973 RMK AO1 SLP064
METAR CYNL 260600Z AUTO 00000KT SCT028 BKN074 13/13 A2973 RMK AO1 SLP064
SPECI CYNL 260538Z AUTO 26002KT FEW021 SCT029 BKN072 13/13 A2972 RMK AO1 SLP061
SPECI CYNL 260527Z AUTO 25003KT SCT020 BKN028 13/13 A2973 RMK AO1 SLP062
METAR CYNL 260500Z AUTO 23003KT FEW011 BKN017 BKN027 13/13 A2973 RMK AO1 SLP065
SPECI CYNL 260449Z AUTO 22003KT FEW010 BKN016 OVC042 13/13 A2974 RMK AO1 SLP067
SPECI CYNL 260448Z AUTO 22002KT VV036 13/13 A2974 RMK AO1 SLP067
SPECI CYNL 260447Z AUTO 23003KT FEW010 BKN015 OVC042 13/13 A2974 RMK AO1 SLP067
SPECI CYNL 260431Z AUTO 25002KT FEW011 BKN014 OVC022 13/13 A2974 RMK AO1 SLP068
SPECI CYNL 260422Z AUTO 25005KT FEW008 SCT014 BKN023 13/13 A2974 RMK AO1 SLP069
SPECI CYNL 260412Z AUTO 26004KT SCT015 BKN024 BKN049 13/13 A2974 RMK AO1 SLP069
METAR CYNL 260400Z AUTO 25003KT FEW007 SCT035 BKN049 13/13 A2975 RMK AO1 SLP070
SPECI CYNL 260356Z AUTO 26004KT FEW009 SCT037 BKN052 13/13 A2975 RMK AO1 SLP071
SPECI CYNL 260340Z AUTO 28006KT FEW010 SCT017 BKN030 14/14 A2975 RMK AO1 SLP071
SPECI CYNL 260337Z AUTO 28007KT FEW009 SCT016 BKN029 14/14 A2974 RMK AO1 SLP070
SPECI CYNL 260332Z AUTO 27007KT FEW012 SCT017 BKN027 14/14 A2975 RMK AO1 SLP070
SPECI CYNL 260331Z AUTO 27006KT SCT014 BKN024 BKN046 14/14 A2974 RMK AO1 SLP070
SPECI CYNL 260326Z AUTO 26006KT FEW013 SCT017 BKN025 14/13 A2974 RMK AO1 SLP070
SPECI CYNL 260324Z AUTO 25004KT SCT016 BKN022 BKN076 14/14 A2974 RMK AO1 SLP070
SPECI CYNL 260322Z AUTO 26004KT SCT018 BKN025 BKN076 14/14 A2974 RMK AO1 SLP069
SPECI CYNL 260319Z AUTO 24004KT FEW019 SCT025 BKN031 14/14 A2974 RMK AO1 SLP069
SPECI CYNL 260318Z AUTO 23005KT FEW019 BKN027 14/14 A2974 RMK AO1 SLP069
SPECI CYNL 260315Z AUTO 23004KT SCT025 BKN031 14/14 A2974 RMK AO1 SLP069
SPECI CYNL 260313Z AUTO 23003KT BKN025 14/14 A2974 RMK AO1 SLP069
SPECI CYNL 260310Z AUTO 24003KT SCT024 BKN031 14/14 A2974 RMK AO1 SLP070
SPECI CYNL 260305Z AUTO 24004KT BKN024 BKN049 14/14 A2975 RMK AO1 SLP070
SPECI CYNL 260303Z AUTO 24004KT SCT025 BKN031 BKN041 14/14 A2975 RMK AO1 SLP070
SPECI CYNL 260302Z AUTO 24005KT BKN027 BKN041 14/14 A2975 RMK AO1 SLP070
METAR CYNL 260300Z AUTO 25005KT SCT023 BKN030 BKN047 14/14 A2975 RMK AO1 SLP070
SPECI CYNL 260258Z AUTO 25004KT SCT023 BKN030 14/14 A2975 RMK AO1 SLP071
SPECI CYNL 260245Z AUTO 24004KT FEW012 BKN027 BKN050 14/14 A2975 RMK AO1 SLP071
SPECI CYNL 260241Z AUTO 24005KT FEW013 SCT024 BKN030 14/13 A2975 RMK AO1 SLP071
SPECI CYNL 260238Z AUTO 24005KT FEW016 BKN029 14/14 A2975 RMK AO1 SLP071
SPECI CYNL 260225Z AUTO 24004KT FEW008 BKN064 14/13 A2975 RMK AO1 SLP072
METAR CYNL 260200Z AUTO 25005KT FEW026 BKN068 14/13 A2975 RMK AO1 SLP073
METAR CYNL 260100Z AUTO 25005KT FEW025 SCT033 BKN046 14/13 A2977 RMK AO1 SLP080
SPECI CYNL 260042Z AUTO 26005KT BKN030 BKN039 OVC048 13/12 A2977 RMK AO1 SLP082
SPECI CYNL 260037Z AUTO 26006KT BKN028 OVC048 13/13 A2977 RMK AO1 SLP082
SPECI CYNL 260009Z AUTO 27006KT SCT013 BKN034 BKN054 14/13 A2978 RMK AO1 SLP084
METAR CYNL 260000Z AUTO 27007KT FEW010 SCT016 BKN023 14/13 A2978 RMK AO1 SLP084
SPECI CYNL 252359Z AUTO 27007KT FEW010 SCT016 BKN033 14/13 A2978 RMK AO1 SLP084
SPECI CYNL 252358Z AUTO 28008KT FEW010 SCT016 BKN023 14/13 A2978 RMK AO1 SLP084
SPECI CYNL 252347Z AUTO 27007KT SCT009 BKN056 14/13 A2978 RMK AO1 SLP084
SPECI CYNL 252346Z AUTO 27006KT SCT009 BKN023 14/13 A2978 RMK AO1 SLP084
SPECI CYNL 252342Z AUTO 28005KT SCT010 BKN023 14/13 A2978 RMK AO1 SLP084
SPECI CYNL 252339Z AUTO 26005KT FEW009 SCT022 14/13 A2978 RMK AO1 SLP084
METAR CYNL 252300Z AUTO 28007KT FEW013 14/12 A2978 RMK AO1 SLP085
SPECI CYNL 252236Z AUTO 29006KT SCT013 BKN050 14/12 A2978 RMK AO1 SLP087
SPECI CYNL 252232Z AUTO 27005KT SCT012 BKN024 14/13 A2979 RMK AO1 SLP087
SPECI CYNL 252214Z AUTO 25005KT FEW009 SCT024 BKN041 14/13 A2978 RMK AO1 SLP086
SPECI CYNL 252212Z AUTO 24004KT FEW011 BKN042 BKN052 14/13 A2978 RMK AO1 SLP086
SPECI CYNL 252210Z AUTO 25004KT VV028 14/13 A2978 RMK AO1 SLP086
METAR CYNL 252200Z AUTO 25005KT FEW008 BKN047 BKN062 14/13 A2979 RMK AO1 SLP087
SPECI CYNL 252139Z AUTO 26005KT FEW009 SCT022 BKN036 14/13 A2979 RMK AO1 SLP090
METAR CYNL 252100Z AUTO 27008KT VV037 14/12 A2980 RMK AO1 SLP091
METAR CYNL 252000Z AUTO 27002KT FEW038 SCT130 13/12 A2980 RMK AO1 SLP091
METAR CYNL 251900Z AUTO 29008KT FEW018 SCT190 15/12 A2979 RMK AO1 SLP086
SPECI CYNL 251837Z AUTO 35002KT FEW002 SCT028 BKN066 15/13 A2979 RMK AO1 SLP087
SPECI CYNL 251823Z AUTO 30004G19KT FEW002 SCT015 BKN025 14/13 A2980 RMK AO1 SLP088
SPECI CYNL 251821Z AUTO 28005G19KT FEW002 SCT014 BKN024 14/12 A2980 RMK AO1 SLP088
SPECI CYNL 251815Z AUTO 25010G19KT FEW002 BKN025 15/12 A2980 RMK AO1 SLP088
SPECI CYNL 251813Z AUTO 25014G19KT BKN025 16/12 A2979 RMK AO1 SLP086
METAR CYNL 251800Z AUTO 26005KT FEW019 SCT025 17/10 A2979 RMK AO1 SLP084
SPECI CYNL 251759Z AUTO 26006KT SCT024 17/10 A2979 RMK AO1 SLP085
SPECI CYNL 251756Z AUTO 25007KT BKN024 16/10 A2979 RMK AO1 SLP085
SPECI CYNL 251754Z AUTO 27007KT FEW020 BKN026 16/10 A2979 RMK AO1 SLP085
SPECI CYNL 251739Z AUTO 27006KT SCT020 BKN076 16/11 A2980 RMK AO1 SLP088
SPECI CYNL 251738Z AUTO 26009KT 230V290 SCT020 BKN029 16/11 A2980 RMK AO1 SLP088
METAR CYNL 251700Z AUTO 27007KT FEW016 BKN074 15/11 A2981 RMK AO1 SLP092
SPECI CYNL 251629Z AUTO 27007KT SCT021 BKN076 15/11 A2981 RMK AO1 SLP092
SPECI CYNL 251628Z AUTO 27007KT FEW015 BKN023 15/11 A2981 RMK AO1 SLP093
SPECI CYNL 251626Z AUTO 27008G15KT FEW014 SCT021 BKN028 15/11 A2981 RMK AO1 SLP093
SPECI CYNL 251615Z AUTO 27009G16KT SCT012 BKN023 15/11 A2981 RMK AO1 SLP094
SPECI CYNL 251609Z AUTO 25007KT SCT011 BKN066 15/12 A2981 RMK AO1 SLP093
SPECI CYNL 251603Z AUTO 24007KT SCT011 BKN016 BKN062 14/12 A2982 RMK AO1 SLP095
METAR CYNL 251600Z AUTO 25007KT BKN011 BKN062 14/12 A2982 RMK AO1 SLP095
SPECI CYNL 251554Z AUTO 26007KT BKN012 14/12 A2982 RMK AO1 SLP096
SPECI CYNL 251546Z AUTO 26006KT FEW009 SCT012 BKN062 14/12 A2982 RMK AO1 SLP096
SPECI CYNL 251541Z AUTO 26005KT SCT010 BKN049 BKN062 13/12 A2982 RMK AO1 SLP097
SPECI CYNL 251512Z AUTO 27006KT SCT008 OVC011 14/12 A2982 RMK AO1 SLP097
METAR CYNL 251500Z AUTO 27009KT BKN008 OVC200 14/12 A2982 RMK AO1 SLP098
SPECI CYNL 251417Z AUTO 26006KT BKN008 13/12 A2982 RMK AO1 SLP099
SPECI CYNL 251416Z AUTO 26006KT SCT008 BKN028 13/13 A2982 RMK AO1 SLP099
SPECI CYNL 251403Z AUTO 25006KT FEW008 SCT096 12/12 A2983 RMK AO1 SLP100
METAR CYNL 251400Z AUTO 25005KT FEW028 12/12 A2983 RMK AO1 SLP100
METAR CYNL 251300Z AUTO 24004KT FEW038 BKN078 12/12 A2982 RMK AO1 SLP099
METAR CYNL 251200Z AUTO 24004KT FEW078 11/11 A2983 RMK AO1 SLP101
METAR CYNL 251100Z AUTO 28003KT BKN080 11/11 A2983 RMK AO1 SLP103
METAR CYNL 251000Z AUTO 27003KT FEW004 11/11 A2984 RMK AO1 SLP102
SPECI CYNL 250942Z AUTO 26003KT FEW004 11/11 A2984 RMK AO1 SLP100
METAR CYNL 250900Z AUTO 25004KT CLR 12/12 A2984 RMK AO1 SLP099
METAR CYNL 250800Z AUTO 22004KT FEW011 13/13 A2984 RMK AO1 SLP099
SPECI CYNL 250732Z AUTO 22005KT SCT009 13/13 A2984 RMK AO1 SLP099
SPECI CYNL 250721Z AUTO 22005KT BKN009 13/13 A2985 RMK AO1 SLP100
SPECI CYNL 250714Z AUTO 23006KT SCT008 BKN010 13/13 A2985 RMK AO1 SLP101
SPECI CYNL 250712Z AUTO 22005KT BKN008 13/13 A2985 RMK AO1 SLP101
SPECI CYNL 250711Z AUTO 22005KT SCT008 BKN010 13/13 A2985 RMK AO1 SLP101
METAR CYNL 250700Z AUTO 22004KT BKN009 13/13 A2985 RMK AO1 SLP102
SPECI CYNL 250659Z AUTO 22004KT BKN009 13/13 A2985 RMK AO1 SLP102
SPECI CYNL 250658Z AUTO 22004KT BKN010 13/13 A2985 RMK AO1 SLP102
METAR CYNL 250600Z AUTO 21005KT FEW005 BKN120 13/13 A2986 RMK AO1 SLP104
SPECI CYNL 250541Z AUTO 20005KT FEW004 SCT007 BKN031 13/13 A2987 RMK AO1 SLP106
SPECI CYNL 250540Z AUTO 20004KT FEW004 SCT007 BKN009 13/13 A2987 RMK AO1 SLP106
SPECI CYNL 250539Z AUTO 19005KT FEW004 SCT007 BKN031 13/13 A2987 RMK AO1 SLP106
SPECI CYNL 250537Z AUTO 19005KT SCT006 BKN029 13/13 A2987 RMK AO1 SLP106
SPECI CYNL 250536Z AUTO 20006KT FEW005 BKN009 13/13 A2987 RMK AO1 SLP106
SPECI CYNL 250526Z AUTO 20004KT SCT009 BKN049 13/13 A2987 RMK AO1 SLP107
SPECI CYNL 250506Z AUTO 19004KT SCT013 BKN052 BKN084 14/14 A2987 RMK AO1 SLP106
METAR CYNL 250500Z AUTO 18005KT BKN013 BKN088 14/14 A2987 RMK AO1 SLP106
SPECI CYNL 250441Z AUTO 18004KT BKN014 BKN064 14/14 A2987 RMK AO1 SLP108
SPECI CYNL 250421Z AUTO 17006KT FEW013 SCT024 BKN054 14/14 A2987 RMK AO1 SLP109
SPECI CYNL 250415Z AUTO 17006KT BKN023 14/14 A2988 RMK AO1 SLP110
SPECI CYNL 250414Z AUTO 18006KT SCT023 BKN027 14/14 A2988 RMK AO1 SLP110
SPECI CYNL 250413Z AUTO 17006KT BKN023 14/14 A2988 RMK AO1 SLP110
SPECI CYNL 250412Z AUTO 17005KT SCT023 BKN027 14/14 A2988 RMK AO1 SLP110
SPECI CYNL 250406Z AUTO 17006KT FEW015 BKN024 14/14 A2988 RMK AO1 SLP110
SPECI CYNL 250401Z AUTO 17005KT FEW015 BKN025 14/14 A2988 RMK AO1 SLP111
METAR CYNL 250400Z AUTO 18005KT FEW016 SCT025 BKN048 14/14 A2988 RMK AO1 SLP111
METAR CYNL 250300Z AUTO 19003KT SCT056 14/14 A2989 RMK AO1 SLP114
SPECI CYNL 250221Z AUTO 22004KT SCT004 BKN052 14/14 A2989 RMK AO1 SLP117
SPECI CYNL 250220Z AUTO 23004KT SCT004 BKN018 14/14 A2989 RMK AO1 SLP117
SPECI CYNL 250210Z AUTO 21003KT BKN004 OVC052 14/14 A2989 RMK AO1 SLP117
SPECI CYNL 250208Z AUTO 20004KT SCT004 BKN014 OVC050 14/14 A2989 RMK AO1 SLP118
SPECI CYNL 250204Z AUTO 20004KT SCT003 BKN008 OVC050 14/14 A2989 RMK AO1 SLP118
SPECI CYNL 250203Z AUTO 20003KT SCT003 BKN010 OVC050 14/14 A2989 RMK AO1 SLP118
METAR CYNL 250200Z AUTO 18003KT SCT003 OVC050 14/14 A2989 RMK AO1 SLP118
SPECI CYNL 250148Z AUTO 15002KT FEW005 OVC052 14/14 A2989 RMK AO1 SLP119
METAR CYNL 250100Z AUTO 00000KT FEW025 SCT039 OVC054 14/14 A2991 RMK AO1 SLP123
SPECI CYNL 250035Z AUTO 23002KT FEW014 BKN036 OVC054 14/14 A2991 RMK AO1 SLP128
SPECI CYNL 250030Z AUTO 24004KT VV023 14/14 A2991 RMK AO1 SLP128
METAR CYNL 250000Z AUTO 24008KT FEW002 SCT030 BKN044 14/13 A2992 RMK AO1 SLP130
SPECI CYNL 242357Z AUTO 25006KT FEW002 BKN044 OVC058 14/13 A2992 RMK AO1 SLP132
METAR CYNL 242300Z AUTO 21008G19KT FEW030 SCT042 BKN052 16/12 A2992 RMK AO1 SLP133
METAR CYNL 242200Z AUTO 17012G18KT FEW072 19/07 A2992 RMK AO1 SLP128
METAR CYNL 242100Z AUTO 18010KT SCT076 19/08 A2993 RMK AO1 PRESFR SLP131
METAR CYNL 242000Z AUTO 17012KT FEW049 SCT082 20/07 A2995 RMK AO1 SLP138
METAR CYNL 241900Z AUTO 18012KT FEW052 SCT072 20/08 A2997 RMK AO1 SLP143
METAR CYNL 241800Z AUTO 15011KT FEW076 20/07 A2998 RMK AO1 PRESFR SLP147
METAR CYNL 241700Z AUTO 18008KT CLR 19/06 A3001 RMK AO1 SLP155
METAR CYNL 241600Z AUTO 19011G17KT CLR 19/07 A3002 RMK AO1 SLP161
METAR CYNL 241500Z AUTO 19007G15KT CLR 18/08 A3004 RMK AO1 SLP167
METAR CYNL 241400Z AUTO 20008KT CLR 16/09 A3005 RMK AO1 SLP171
METAR CYNL 241300Z AUTO 20004KT CLR 14/10 A3006 RMK AO1 SLP175
METAR CYNL 241200Z AUTO 00000KT CLR 11/09 A3007 RMK AO1 SLP180
METAR CYNL 241100Z AUTO 00000KT CLR 09/09 A3008 RMK AO1 SLP183
METAR CYNL 241000Z AUTO 23003KT CLR 10/10 A3008 RMK AO1 SLP183
METAR CYNL 240900Z AUTO 23003KT CLR 11/10 A3008 RMK AO1 SLP183
METAR CYNL 240800Z AUTO 00000KT CLR 12/10 A3008 RMK AO1 SLP182
METAR CYNL 240700Z AUTO 00000KT OVC084 13/11 A3008 RMK AO1 SLP182
METAR CYNL 240600Z AUTO 24003KT OVC086 14/10 A3009 RMK AO1 SLP184
METAR CYNL 240500Z AUTO 22003KT BKN084 14/09 A3009 RMK AO1 SLP186
METAR CYNL 240400Z AUTO 23004KT FEW086 14/09 A3010 RMK AO1 SLP188
METAR CYNL 240300Z AUTO 20006KT SCT086 16/08 A3009 RMK AO1 SLP186
METAR CYNL 240200Z AUTO 17003KT BKN086 17/08 A3009 RMK AO1 SLP184
METAR CYNL 240100Z AUTO 14005KT SCT078 18/06 A3009 RMK AO1 SLP185
METAR CYNL 240000Z AUTO 07006KT BKN054 20/06 A3009 RMK AO1 SLP184
METAR CYNL 232300Z AUTO 08007KT 010V140 SCT054 20/06 A3009 RMK AO1 SLP186
METAR CYNL 232200Z AUTO 16005KT FEW074 20/06 A3010 RMK AO1 SLP188
METAR CYNL 232100Z AUTO 13006KT FEW052 19/06 A3010 RMK AO1 SLP190
METAR CYNL 232000Z AUTO 16004KT SCT043 18/07 A3010 RMK AO1 SLP192
METAR CYNL 231900Z AUTO 17003KT SCT037 17/07 A3011 RMK AO1 SLP195
METAR CYNL 231800Z AUTO 06006KT FEW030 SCT038 16/08 A3011 RMK AO1 SLP196
METAR CYNL 231700Z AUTO 09009KT SCT024 15/09 A3011 RMK AO1 SLP195
SPECI CYNL 231608Z AUTO 08007KT SCT023 BKN130 15/09 A3010 RMK AO1 SLP196
METAR CYNL 231600Z AUTO 07008KT BKN023 14/09 A3010 RMK AO1 SLP196
SPECI CYNL 231552Z AUTO 08008KT BKN022 14/09 A3010 RMK AO1 SLP196
METAR CYNL 231500Z AUTO 05004KT SCT130 13/09 A3010 RMK AO1 SLP195
METAR CYNL 231400Z AUTO 04005KT FEW140 13/10 A3009 RMK AO1 SLP193
METAR CYNL 231300Z AUTO 02003KT FEW016 BKN130 12/10 A3009 RMK AO1 SLP191
METAR CYNL 231200Z AUTO 01007KT FEW086 BKN130 11/10 A3008 RMK AO1 SLP188
METAR CYNL 231100Z AUTO 02003KT FEW082 BKN130 11/11 A3007 RMK AO1 SLP186
METAR CYNL 231000Z AUTO 03004KT SCT066 BKN130 11/11 A3006 RMK AO1 SLP181
METAR CYNL 230900Z AUTO 04005KT OVC052 11/11 A3005 RMK AO1 SLP176
METAR CYNL 230800Z AUTO 03004KT SCT011 11/11 A3005 RMK AO1 SLP174
SPECI CYNL 230728Z AUTO 04003KT SCT009 OVC032 11/11 A3004 RMK AO1 SLP174
METAR CYNL 230700Z AUTO 03004KT OVC008 11/11 A3004 RMK AO1 SLP173
METAR CYNL 230600Z AUTO 05006KT BKN006 OVC009 11/11 A3003 RMK AO1 SLP171
METAR CYNL 230500Z AUTO 05008KT BKN005 OVC009 11/11 A3002 RMK AO1 SLP169
SPECI CYNL 230457Z AUTO 04006KT BKN005 OVC008 11/11 A3002 RMK AO1 SLP170
SPECI CYNL 230456Z AUTO 03006KT BKN004 OVC009 11/11 A3002 RMK AO1 SLP170
SPECI CYNL 230455Z AUTO 04006KT SCT004 BKN005 OVC008 11/11 A3002 RMK AO1 SLP170
SPECI CYNL 230419Z AUTO 04007KT BKN004 OVC008 11/11 A3001 RMK AO1 SLP168
SPECI CYNL 230412Z AUTO 03005KT BKN005 OVC008 11/11 A3001 RMK AO1 SLP168
SPECI CYNL 230411Z AUTO 03005KT BKN004 OVC008 11/11 A3001 RMK AO1 SLP168
METAR CYNL 230400Z AUTO 03006KT BKN005 OVC009 11/11 A3001 RMK AO1 SLP168
SPECI CYNL 230334Z AUTO 03005KT FEW005 BKN007 OVC012 11/11 A3001 RMK AO1 SLP169
SPECI CYNL 230331Z AUTO 03006KT FEW005 SCT007 OVC012 11/11 A3001 RMK AO1 SLP168
SPECI CYNL 230330Z AUTO 03005KT FEW005 BKN007 OVC012 11/11 A3001 RMK AO1 SLP168
SPECI CYNL 230325Z AUTO 03008KT FEW005 SCT006 OVC012 11/11 A3001 RMK AO1 SLP167
SPECI CYNL 230324Z AUTO 03007KT FEW005 SCT006 BKN009 11/11 A3001 RMK AO1 SLP167
METAR CYNL 230300Z AUTO 03009KT FEW006 OVC012 11/10 A3001 RMK AO1 SLP166
SPECI CYNL 230259Z AUTO 03009KT FEW006 OVC012 11/10 A3001 RMK AO1 SLP166
SPECI CYNL 230230Z AUTO 04009KT BKN011 OVC020 12/09 A3000 RMK AO1 SLP164
METAR CYNL 230200Z AUTO 04014G20KT OVC021 12/09 A2999 RMK AO1 SLP161
SPECI CYNL 230144Z AUTO 05012G17KT BKN024 OVC028 13/08 A2999 RMK AO1 SLP159
SPECI CYNL 230143Z AUTO 04011G17KT OVC025 13/08 A2999 RMK AO1 SLP159
SPECI CYNL 230142Z AUTO 05011G17KT BKN024 OVC029 13/08 A2999 RMK AO1 SLP159
SPECI CYNL 230125Z AUTO 03013KT OVC029 13/07 A2998 RMK AO1 SLP156
METAR CYNL 230100Z AUTO 02010KT BKN031 14/06 A2998 RMK AO1 SLP155
SPECI CYNL 230041Z AUTO 02009KT OVC030 14/07 A2998 RMK AO1 SLP155
METAR CYNL 230000Z AUTO 03012KT OVC029 14/07 A2998 RMK AO1 SLP155
SPECI CYNL 222320Z AUTO 03012G21KT BKN029 14/07 A2997 RMK AO1 SLP153
SPECI CYNL 222319Z AUTO 04015G21KT BKN030 14/07 A2997 RMK AO1 SLP153
SPECI CYNL 222317Z AUTO 04011G21KT BKN029 BKN035 14/07 A2997 RMK AO1 SLP153
METAR CYNL 222300Z AUTO 03014KT SCT036 15/07 A2996 RMK AO1 SLP150
METAR CYNL 222200Z AUTO 03012G20KT BKN046 15/07 A2995 RMK AO1 SLP143
METAR CYNL 222100Z AUTO 00010G15KT SCT074 15/07 A2994 RMK AO1 SLP141
METAR CYNL 222000Z AUTO 02011G16KT FEW086 15/07 A2993 RMK AO1 SLP139
METAR CYNL 221900Z AUTO 02010G17KT FEW064 14/07 A2992 RMK AO1 SLP136
METAR CYNL 221800Z AUTO 01008G15KT SCT062 13/07 A2992 RMK AO1 SLP136
METAR CYNL 221700Z AUTO 01007KT OVC054 11/07 A2991 RMK AO1 SLP135
METAR CYNL 221600Z AUTO 00006KT OVC046 11/07 A2990 RMK AO1 SLP133
METAR CYNL 221500Z AUTO 01005KT BKN032 OVC042 10/07 A2989 RMK AO1 SLP129
METAR CYNL 221400Z AUTO 02007KT OVC038 10/08 A2989 RMK AO1 SLP129
METAR CYNL 221300Z AUTO 00007KT OVC042 10/07 A2989 RMK AO1 SLP127
METAR CYNL 221200Z AUTO 01006KT BKN090 09/07 A2988 RMK AO1 SLP125
METAR CYNL 221100Z AUTO 00005KT FEW050 OVC060 09/07 A2987 RMK AO1 SLP122
METAR CYNL 221000Z AUTO 02006KT BKN076 09/07 A2986 RMK AO1 SLP120
METAR CYNL 220900Z AUTO 02007KT OVC042 09/07 A2986 RMK AO1 SLP117
METAR CYNL 220800Z AUTO 02005KT OVC035 09/08 A2986 RMK AO1 SLP117
SPECI CYNL 220730Z AUTO 02006KT FEW011 SCT018 OVC030 09/08 A2986 RMK AO1 SLP117
SPECI CYNL 220725Z AUTO 02006KT FEW010 SCT013 OVC029 09/08 A2985 RMK AO1 SLP117
SPECI CYNL 220723Z AUTO 03007KT SCT011 BKN018 OVC028 09/07 A2985 RMK AO1 SLP116
SPECI CYNL 220709Z AUTO 03012KT SCT009 BKN011 BKN017 09/07 A2985 RMK AO1 SLP114
METAR CYNL 220700Z AUTO 03010KT BKN009 BKN014 OVC020 09/08 A2985 RMK AO1 SLP114
SPECI CYNL 220654Z AUTO 02008KT BKN008 OVC014 09/08 A2984 RMK AO1 SLP112
SPECI CYNL 220650Z AUTO 02010KT SCT008 BKN010 BKN014 09/08 A2984 RMK AO1 SLP112
SPECI CYNL 220641Z AUTO 03010KT BKN008 BKN015 OVC021 09/08 A2984 RMK AO1 SLP111
SPECI CYNL 220640Z AUTO 03010KT SCT008 BKN010 BKN015 09/08 A2984 RMK AO1 SLP111
METAR CYNL 220600Z AUTO 02007KT BKN009 OVC012 09/08 A2984 RMK AO1 SLP109
SPECI CYNL 220551Z AUTO 02006KT BKN009 OVC012 09/08 A2984 RMK AO1 SLP109
SPECI CYNL 220539Z AUTO 02006KT FEW008 BKN011 OVC014 09/08 A2984 RMK AO1 SLP109
SPECI CYNL 220518Z AUTO 03008KT OVC014 09/07 A2983 RMK AO1 SLP107
METAR CYNL 220500Z AUTO 02009KT FEW009 OVC015 09/08 A2983 RMK AO1 SLP106
SPECI CYNL 220449Z AUTO 02009G15KT FEW009 SCT013 OVC018 09/08 A2983 RMK AO1 SLP107
SPECI CYNL 220444Z AUTO 02011KT FEW009 BKN014 BKN018 09/08 A2983 RMK AO1 SLP107
SPECI CYNL 220439Z AUTO 03008KT BKN014 OVC018 09/08 A2983 RMK AO1 SLP106
SPECI CYNL 220405Z AUTO 03008KT FEW010 SCT014 OVC019 09/08 A2983 RMK AO1 SLP106
SPECI CYNL 220401Z AUTO 03008KT FEW010 BKN014 OVC019 09/08 A2983 RMK AO1 SLP107
METAR CYNL 220400Z AUTO 03010KT FEW010 SCT014 OVC019 09/08 A2983 RMK AO1 SLP107
SPECI CYNL 220330Z AUTO 03007KT FEW009 OVC015 09/08 A2982 RMK AO1 SLP104
SPECI CYNL 220328Z AUTO 03008KT FEW009 BKN014 OVC017 09/08 A2982 RMK AO1 SLP104
SPECI CYNL 220309Z AUTO 02007KT SCT009 BKN015 OVC019 09/09 A2981 RMK AO1 SLP102
SPECI CYNL 220307Z AUTO 01007KT SCT009 BKN011 BKN015 09/09 A2981 RMK AO1 SLP101
SPECI CYNL 220306Z AUTO 01007KT BKN009 BKN015 OVC019 09/09 A2981 RMK AO1 SLP101
METAR CYNL 220300Z AUTO 02008KT SCT008 BKN014 OVC019 09/09 A2981 RMK AO1 SLP101
SPECI CYNL 220232Z AUTO 03011G19KT SCT007 BKN010 BKN015 09/08 A2980 RMK AO1 SLP097
SPECI CYNL 220222Z AUTO 03007KT SCT007 BKN009 BKN011 09/09 A2980 RMK AO1 SLP097
SPECI CYNL 220220Z AUTO 02008KT SCT007 BKN010 OVC018 09/09 A2980 RMK AO1 SLP097
SPECI CYNL 220218Z AUTO 02008KT BKN008 BKN011 OVC018 09/09 A2980 RMK AO1 SLP097
SPECI CYNL 220217Z AUTO 02009KT SCT007 BKN010 OVC018 09/09 A2980 RMK AO1 SLP097
SPECI CYNL 220211Z AUTO 03006KT FEW006 BKN009 OVC014 09/09 A2980 RMK AO1 SLP096
METAR CYNL 220200Z AUTO 02011KT FEW007 BKN010 OVC016 09/09 A2979 RMK AO1 SLP095
SPECI CYNL 220155Z AUTO 02010G15KT FEW007 BKN010 OVC017 09/09 A2979 RMK AO1 PRESRR SLP092
SPECI CYNL 220151Z AUTO 02008G16KT FEW007 SCT010 OVC015 09/09 A2979 RMK AO1 PRESRR SLP092
SPECI CYNL 220108Z AUTO 00008G16KT FEW008 BKN012 OVC019 10/09 A2978 RMK AO1 PRESRR SLP089
METAR CYNL 220100Z AUTO 00007KT FEW010 BKN013 OVC018 10/09 A2978 RMK AO1 PRESRR SLP088
SPECI CYNL 220030Z AUTO 35009KT BKN012 OVC018 10/08 A2977 RMK AO1 SLP084
SPECI CYNL 220025Z AUTO 00007G19KT SCT012 OVC019 10/08 A2977 RMK AO1 SLP083
METAR CYNL 220000Z AUTO 00011KT BKN012 OVC017 10/08 A2976 RMK AO1 SLP080
SPECI CYNL 212335Z AUTO 01010G16KT BKN012 OVC028 10/08 A2975 RMK AO1 PRESRR SLP078
SPECI CYNL 212325Z AUTO 01012G21KT SCT011 BKN019 OVC029 10/08 A2975 RMK AO1 PRESRR SLP078
SPECI CYNL 212321Z AUTO 01011G21KT FEW010 BKN013 OVC029 10/09 A2974 RMK AO1 PRESRR SLP076
SPECI CYNL 212319Z AUTO 01013G21KT SCT010 BKN023 OVC030 10/08 A2974 RMK AO1 PRESRR SLP076
SPECI CYNL 212317Z AUTO 00015G21KT SCT010 OVC028 10/08 A2974 RMK AO1 PRESRR SLP075
METAR CYNL 212300Z AUTO 01012G20KT BKN010 BKN013 OVC025 10/09 A2974 RMK AO1 PRESRR SLP073
SPECI CYNL 212233Z AUTO 01011G19KT FEW008 BKN011 OVC019 11/10 A2972 RMK AO1 SLP069
SPECI CYNL 212224Z AUTO 00012G19KT BKN011 BKN050 11/09 A2972 RMK AO1 SLP068
SPECI CYNL 212223Z AUTO 00011G19KT SCT011 BKN015 BKN050 11/09 A2972 RMK AO1 SLP068
SPECI CYNL 212221Z AUTO 00009G19KT BKN011 BKN050 11/09 A2972 RMK AO1 SLP068
SPECI CYNL 212219Z AUTO 01012G19KT SCT010 BKN015 BKN050 11/09 A2972 RMK AO1 SLP068
SPECI CYNL 212212Z AUTO 00012G19KT BKN011 11/09 A2971 RMK AO1 SLP066
SPECI CYNL 212209Z AUTO 35012G18KT SCT010 BKN019 11/10 A2971 RMK AO1 SLP066
SPECI CYNL 212207Z AUTO 00009G17KT SCT010 BKN027 11/10 A2971 RMK AO1 SLP065
SPECI CYNL 212202Z AUTO 00010G16KT SCT010 BKN031 11/09 A2971 RMK AO1 SLP064
SPECI CYNL 212201Z AUTO 00010G16KT SCT010 BKN021 11/09 A2971 RMK AO1 SLP064
METAR CYNL 212200Z AUTO 01012KT SCT010 BKN031 11/09 A2971 RMK AO1 SLP064
SPECI CYNL 212158Z AUTO 01011G16KT SCT010 BKN021 11/10 A2971 RMK AO1 SLP064
SPECI CYNL 212156Z AUTO 00008G16KT SCT009 BKN027 11/10 A2971 RMK AO1 PRESRR SLP064
SPECI CYNL 212150Z AUTO 00009G21KT FEW008 SCT012 BKN020 10/10 A2971 RMK AO1 PRESRR SLP064
SPECI CYNL 212143Z AUTO 01010G21KT VV023 11/09 A2970 RMK AO1 PRESRR SLP062
SPECI CYNL 212142Z AUTO 01011G21KT SCT012 BKN029 11/09 A2970 RMK AO1 PRESRR SLP062
SPECI CYNL 212138Z AUTO 01012G18KT FEW010 SCT013 BKN021 11/09 A2970 RMK AO1 PRESRR SLP061
SPECI CYNL 212136Z AUTO 01012G17KT FEW010 SCT013 BKN028 11/09 A2970 RMK AO1 PRESRR SLP061
SPECI CYNL 212134Z AUTO 01010G20KT FEW009 SCT014 BKN020 11/09 A2970 RMK AO1 PRESRR SLP061
SPECI CYNL 212130Z AUTO 01008G20KT SCT012 BKN020 BKN027 11/10 A2970 RMK AO1 PRESRR SLP061
SPECI CYNL 212120Z AUTO 00011G20KT FEW010 BKN013 BKN019 11/10 A2970 RMK AO1 PRESRR SLP060
SPECI CYNL 212109Z AUTO 01010G19KT SCT014 BKN021 BKN034 11/09 A2969 RMK AO1 PRESRR SLP058
SPECI CYNL 212108Z AUTO 02011G19KT BKN013 BKN034 11/09 A2969 RMK AO1 PRESRR SLP058
SPECI CYNL 212107Z AUTO 02012G19KT SCT013 BKN015 BKN025 11/09 A2969 RMK AO1 PRESRR SLP058
SPECI CYNL 212102Z AUTO 00012G19KT BKN014 BKN025 OVC034 11/09 A2969 RMK AO1 PRESRR SLP058
METAR CYNL 212100Z AUTO 35012G19KT BKN015 OVC034 11/09 A2969 RMK AO1 PRESRR SLP057
SPECI CYNL 212055Z AUTO 35011G18KT BKN016 BKN035 11/09 A2969 RMK AO1 PRESRR SLP057
SPECI CYNL 212053Z AUTO 01010G18KT SCT015 BKN025 BKN035 11/09 A2969 RMK AO1 PRESRR SLP056
SPECI CYNL 212050Z AUTO 00010G18KT SCT015 BKN036 BKN050 11/09 A2969 RMK AO1 PRESRR SLP056
SPECI CYNL 212040Z AUTO 35011G17KT SCT015 BKN028 11/09 A2968 RMK AO1 PRESRR SLP055
SPECI CYNL 212014Z AUTO 00009G15KT FEW009 SCT022 BKN037 10/09 A2968 RMK AO1 PRESRR SLP052
SPECI CYNL 212012Z AUTO 00010G15KT FEW011 SCT022 BKN037 10/09 A2967 RMK AO1 PRESRR SLP052
SPECI CYNL 212010Z AUTO 00010KT FEW009 SCT013 BKN029 10/09 A2967 RMK AO1 PRESRR SLP052
SPECI CYNL 212002Z AUTO 01011G16KT FEW010 BKN029 OVC037 10/10 A2967 RMK AO1 PRESRR SLP051
METAR CYNL 212000Z AUTO 35008G16KT FEW012 SCT029 OVC037 10/10 A2967 RMK AO1 PRESRR SLP050
SPECI CYNL 211953Z AUTO 00010G16KT FEW014 SCT021 BKN037 11/09 A2967 RMK AO1 PRESRR SLP050
SPECI CYNL 211951Z AUTO 00012KT FEW013 SCT021 BKN029 11/09 A2967 RMK AO1 PRESRR SLP050
SPECI CYNL 211948Z AUTO 00009G16KT FEW015 SCT022 BKN039 11/09 A2967 RMK AO1 PRESRR SLP049
SPECI CYNL 211946Z AUTO 00010G17KT FEW010 SCT019 BKN029 10/09 A2967 RMK AO1 PRESRR SLP049
SPECI CYNL 211944Z AUTO 01008G17KT FEW011 SCT020 BKN030 10/09 A2966 RMK AO1 PRESRR SLP049
SPECI CYNL 211941Z AUTO 01009G17KT FEW011 SCT021 BKN029 10/09 A2966 RMK AO1 PRESRR SLP049
SPECI CYNL 211920Z AUTO 02011G19KT FEW011 BKN018 BKN036 11/10 A2966 RMK AO1 PRESRR SLP047
SPECI CYNL 211919Z AUTO 02011G19KT FEW011 SCT018 BKN025 11/10 A2966 RMK AO1 PRESRR SLP046
SPECI CYNL 211918Z AUTO 02012G19KT SCT015 BKN024 BKN036 11/10 A2965 RMK AO1 PRESRR SLP045
SPECI CYNL 211913Z AUTO 01008G16KT SCT016 BKN026 BKN035 11/09 A2965 RMK AO1 PRESRR SLP044
METAR CYNL 211900Z AUTO 01012G17KT SCT012 BKN017 BKN028 12/09 A2965 RMK AO1 PRESRR SLP042
SPECI CYNL 211846Z AUTO 01012G17KT FEW007 SCT012 BKN018 11/10 A2964 RMK AO1 SLP040
SPECI CYNL 211839Z AUTO 01011G17KT FEW005 BKN012 OVC018 12/10 A2964 RMK AO1 SLP039
SPECI CYNL 211835Z AUTO 02009G17KT FEW005 SCT012 BKN019 12/10 A2964 RMK AO1 SLP038
SPECI CYNL 211834Z AUTO 02007G17KT FEW005 BKN013 BKN020 12/11 A2964 RMK AO1 SLP038
SPECI CYNL 211828Z AUTO 02010G19KT FEW006 SCT011 BKN019 11/11 A2963 RMK AO1 SLP037
SPECI CYNL 211806Z AUTO 35009G17KT FEW009 BKN012 BKN029 12/11 A2962 RMK AO1 SLP032
METAR CYNL 211800Z AUTO 00008G18KT SCT010 BKN013 BKN019 12/11 A2962 RMK AO1 SLP032
SPECI CYNL 211749Z AUTO 35006KT FEW009 BKN012 12/11 A2962 RMK AO1 SLP031
SPECI CYNL 211747Z AUTO 00009KT BKN011 12/11 A2962 RMK AO1 SLP031
METAR CYNL 211700Z AUTO 00009G15KT 11/11 A2961 RMK AO1 SLP028
SPECI CYNL 211643Z AUTO 01009KT 11/10 A2960 RMK AO1 PRESRR SLP026
SPECI CYNL 211640Z AUTO 01008KT FEW008 SCT011 BKN018 11/10 A2960 RMK AO1 PRESRR SLP026
SPECI CYNL 211639Z AUTO 01008G15KT SCT008 BKN013 11/10 A2960 RMK AO1 PRESRR SLP026
SPECI CYNL 211637Z AUTO 01009G15KT SCT008 BKN017 BKN027 11/10 A2960 RMK AO1 PRESRR SLP026
SPECI CYNL 211635Z AUTO 01008G15KT FEW006 SCT008 BKN012 11/10 A2960 RMK AO1 PRESRR SLP025
SPECI CYNL 211624Z AUTO 01010G18KT SCT006 BKN009 BKN020 11/10 A2960 RMK AO1 PRESRR SLP024
SPECI CYNL 211621Z AUTO 00009KT SCT007 BKN011 BKN019 11/11 A2959 RMK AO1 PRESRR SLP023
SPECI CYNL 211620Z AUTO 00009KT FEW006 BKN009 BKN014 11/11 A2959 RMK AO1 PRESRR SLP023
SPECI CYNL 211619Z AUTO 00010KT SCT007 BKN011 BKN014 11/10 A2959 RMK AO1 PRESRR SLP023
METAR CYNL 211600Z AUTO 01006G17KT BKN007 OVC014 11/11 A2959 RMK AO1 PRESRR SLP021
SPECI CYNL 211529Z AUTO 02008KT SCT008 BKN009 BKN023 11/11 A2957 RMK AO1 PRESRR SLP016
SPECI CYNL 211528Z AUTO 02008KT FEW008 SCT009 BKN013 11/11 A2957 RMK AO1 PRESRR SLP016
SPECI CYNL 211518Z AUTO 01009KT SCT008 BKN024 11/11 A2957 RMK AO1 PRESRR SLP015
SPECI CYNL 211502Z AUTO 02010G17KT SCT007 BKN026 11/11 A2957 RMK AO1 PRESRR SLP013
METAR CYNL 211500Z AUTO 02012KT SCT006 BKN011 OVC026 11/11 A2956 RMK AO1 PRESRR SLP013
SPECI CYNL 211459Z AUTO 02011KT SCT006 BKN011 OVC026 11/11 A2956 RMK AO1 PRESRR SLP012
SPECI CYNL 211456Z AUTO 02007KT SCT006 BKN008 OVC029 11/11 A2956 RMK AO1 SLP010
SPECI CYNL 211451Z AUTO 02009G15KT SCT006 BKN010 OVC029 11/11 A2956 RMK AO1 SLP009
SPECI CYNL 211449Z AUTO 02011KT VV026 11/11 A2956 RMK AO1 SLP009
SPECI CYNL 211447Z AUTO 02011KT VV021 11/11 A2955 RMK AO1 SLP008
SPECI CYNL 211446Z AUTO 03011KT SCT006 BKN008 BKN010 11/11 A2955 RMK AO1 SLP008
SPECI CYNL 211445Z AUTO 02010G17KT SCT006 BKN010 OVC024 11/11 A2955 RMK AO1 SLP008
SPECI CYNL 211417Z AUTO 01012G20KT SCT005 BKN008 BKN010 12/12 A2954 RMK AO1 SLP001
SPECI CYNL 211416Z AUTO 00013G20KT VV010 13/13 A2954 RMK AO1 SLP000
METAR CYNL 211400Z AUTO 33009KT SCT004 BKN006 OVC008 13/13 A2953 RMK AO1 SLP998
SPECI CYNL 211357Z AUTO 32010KT BKN005 OVC008 13/13 A2953 RMK AO1 SLP997
SPECI CYNL 211331Z AUTO 33007KT BKN004 BKN012 OVC015 12/12 A2952 RMK AO1 SLP995
SPECI CYNL 211322Z AUTO 31005KT SCT005 BKN007 BKN011 12/12 A2952 RMK AO1 SLP994
SPECI CYNL 211306Z AUTO 31009KT SCT006 BKN011 OVC015 12/12 A2952 RMK AO1 SLP994
SPECI CYNL 211302Z AUTO 32007KT VV012 12/12 A2952 RMK AO1 SLP993
METAR CYNL 211300Z AUTO 32006KT BKN006 BKN011 OVC015 12/12 A2952 RMK AO1 SLP993
SPECI CYNL 211202Z AUTO 32005KT FEW007 BKN009 BKN012 12/12 A2950 RMK AO1 SLP988
METAR CYNL 211200Z AUTO 33007KT SCT007 BKN010 BKN013 12/12 A2950 RMK AO1 SLP988
SPECI CYNL 211157Z AUTO 32008KT SCT008 BKN012 12/12 A2950 RMK AO1 SLP988
SPECI CYNL 211155Z AUTO 32008KT FEW007 BKN009 BKN012 12/12 A2950 RMK AO1 SLP988
SPECI CYNL 211151Z AUTO 32007KT SCT007 BKN012 12/12 A2950 RMK AO1 SLP988
SPECI CYNL 211118Z AUTO 32006KT BKN005 OVC010 12/12 A2949 RMK AO1 SLP985